<?xml version="1.0" encoding="UTF-8" standalone="no" ?>
<gpx xmlns="http://www.topografix.com/GPX/1/1" xmlns:xsi="http://www.w3.org/2001/XMLSchema-instance" xsi:schemaLocation="http://www.topografix.com/GPX/1/1 http://www.topografix.com/GPX/1/1/gpx.xsd" version="1.1" creator="VisuGPX - https://www.visugpx.com">
  <metadata>
    <name>Aucelon les crêtes + la Servelle 20km</name>
  </metadata>
  <wpt lat="44.62635" lon="5.3492">
    <ele>723.1</ele>
    <name><![CDATA[Parking 250 m après le village sur D 140]]></name>
  </wpt>
  <wpt lat="44.62753" lon="5.36062">
    <ele>705.6</ele>
    <name><![CDATA[Épingle, sentier à droite]]></name>
  </wpt>
  <wpt lat="44.62742" lon="5.36086">
    <ele>706.9</ele>
    <name><![CDATA[À droite juste avant le pont.]]></name>
  </wpt>
  <wpt lat="44.62007" lon="5.36701">
    <ele>899.6</ele>
    <name><![CDATA[Carrefour, complètement à gauche]]></name>
  </wpt>
  <wpt lat="44.58925" lon="5.38708">
    <ele>1423.2</ele>
    <name><![CDATA[Tête des Faux, point culminant de la randonnée]]></name>
  </wpt>
  <wpt lat="44.59214" lon="5.37141">
    <ele>1319.7</ele>
    <name><![CDATA[Jonction GRP, à droite.]]></name>
  </wpt>
  <wpt lat="44.60052" lon="5.36182">
    <ele>1297.6</ele>
    <name><![CDATA[Bergerie]]></name>
  </wpt>
  <wpt lat="44.60083" lon="5.36158">
    <ele>1293.7</ele>
    <name><![CDATA[Quitter GRP. À droite.]]></name>
  </wpt>
  <wpt lat="44.60971" lon="5.36535">
    <ele>1196.5</ele>
    <name><![CDATA[Sentier pas très visible à gauche]]></name>
  </wpt>
  <wpt lat="44.62217" lon="5.35701">
    <ele>916.3</ele>
    <name><![CDATA[Laisser large chemin.]]></name>
  </wpt>
  <wpt lat="44.62227" lon="5.35721">
    <ele>913.2</ele>
    <name><![CDATA[Le Poux]]></name>
  </wpt>
  <wpt lat="44.62474" lon="5.34538">
    <ele>732.3</ele>
    <name><![CDATA[Aucelon]]></name>
  </wpt>
  <wpt lat="44.62625" lon="5.34913">
    <ele>724.4</ele>
    <name><![CDATA[Parking 250 m après le village sur D 140]]></name>
  </wpt>
  <trk>
    <name><![CDATA[Les Crêtes d'Aucelon]]></name>
    <extensions>
      <line xmlns="http://www.topografix.com/GPX/gpx_style/0/2">
        <color>0000FF</color>
        <width>4</width>
      </line>
    </extensions>
    <trkseg>
      <trkpt lat="44.62635" lon="5.3492">
        <ele>715</ele>
        <time>2020-05-31T10:22:24+02:00</time>
      </trkpt>
      <trkpt lat="44.62641" lon="5.34933">
        <ele>717</ele>
        <time>2020-05-31T10:25:38+02:00</time>
      </trkpt>
      <trkpt lat="44.62653" lon="5.34941">
        <ele>716</ele>
        <time>2020-05-31T10:25:51+02:00</time>
      </trkpt>
      <trkpt lat="44.62675" lon="5.34953">
        <ele>713</ele>
        <time>2020-05-31T10:26:11+02:00</time>
      </trkpt>
      <trkpt lat="44.62705" lon="5.34972">
        <ele>710</ele>
        <time>2020-05-31T10:26:41+02:00</time>
      </trkpt>
      <trkpt lat="44.62721" lon="5.34987">
        <ele>710</ele>
        <time>2020-05-31T10:26:58+02:00</time>
      </trkpt>
      <trkpt lat="44.6274" lon="5.35003">
        <ele>711</ele>
        <time>2020-05-31T10:27:22+02:00</time>
      </trkpt>
      <trkpt lat="44.62753" lon="5.35011">
        <ele>711</ele>
        <time>2020-05-31T10:27:35+02:00</time>
      </trkpt>
      <trkpt lat="44.62779" lon="5.35022">
        <ele>707</ele>
        <time>2020-05-31T10:27:55+02:00</time>
      </trkpt>
      <trkpt lat="44.62803" lon="5.35039">
        <ele>700</ele>
        <time>2020-05-31T10:28:22+02:00</time>
      </trkpt>
      <trkpt lat="44.62821" lon="5.35074">
        <ele>698</ele>
        <time>2020-05-31T10:28:44+02:00</time>
      </trkpt>
      <trkpt lat="44.62831" lon="5.35087">
        <ele>694</ele>
        <time>2020-05-31T10:28:55+02:00</time>
      </trkpt>
      <trkpt lat="44.6284" lon="5.35114">
        <ele>692</ele>
        <time>2020-05-31T10:29:18+02:00</time>
      </trkpt>
      <trkpt lat="44.62841" lon="5.3515">
        <ele>694</ele>
        <time>2020-05-31T10:29:37+02:00</time>
      </trkpt>
      <trkpt lat="44.62833" lon="5.3517">
        <ele>699</ele>
        <time>2020-05-31T10:30:04+02:00</time>
      </trkpt>
      <trkpt lat="44.62814" lon="5.35182">
        <ele>703</ele>
        <time>2020-05-31T10:30:23+02:00</time>
      </trkpt>
      <trkpt lat="44.62795" lon="5.35192">
        <ele>705</ele>
        <time>2020-05-31T10:30:38+02:00</time>
      </trkpt>
      <trkpt lat="44.62772" lon="5.35204">
        <ele>706</ele>
        <time>2020-05-31T10:30:55+02:00</time>
      </trkpt>
      <trkpt lat="44.62758" lon="5.35217">
        <ele>705</ele>
        <time>2020-05-31T10:31:11+02:00</time>
      </trkpt>
      <trkpt lat="44.62756" lon="5.35243">
        <ele>707</ele>
        <time>2020-05-31T10:31:40+02:00</time>
      </trkpt>
      <trkpt lat="44.62779" lon="5.35257">
        <ele>704</ele>
        <time>2020-05-31T10:31:43+02:00</time>
      </trkpt>
      <trkpt lat="44.62796" lon="5.35271">
        <ele>704</ele>
        <time>2020-05-31T10:32:00+02:00</time>
      </trkpt>
      <trkpt lat="44.62815" lon="5.35289">
        <ele>704</ele>
        <time>2020-05-31T10:32:20+02:00</time>
      </trkpt>
      <trkpt lat="44.62835" lon="5.35303">
        <ele>700</ele>
        <time>2020-05-31T10:32:40+02:00</time>
      </trkpt>
      <trkpt lat="44.62852" lon="5.35316">
        <ele>695</ele>
        <time>2020-05-31T10:32:57+02:00</time>
      </trkpt>
      <trkpt lat="44.62858" lon="5.35334">
        <ele>694</ele>
        <time>2020-05-31T10:33:13+02:00</time>
      </trkpt>
      <trkpt lat="44.62862" lon="5.35357">
        <ele>691</ele>
        <time>2020-05-31T10:33:32+02:00</time>
      </trkpt>
      <trkpt lat="44.62859" lon="5.35384">
        <ele>691</ele>
        <time>2020-05-31T10:33:49+02:00</time>
      </trkpt>
      <trkpt lat="44.62861" lon="5.35408">
        <ele>689</ele>
        <time>2020-05-31T10:34:05+02:00</time>
      </trkpt>
      <trkpt lat="44.62861" lon="5.35438">
        <ele>688</ele>
        <time>2020-05-31T10:34:26+02:00</time>
      </trkpt>
      <trkpt lat="44.62858" lon="5.3547">
        <ele>687</ele>
        <time>2020-05-31T10:34:46+02:00</time>
      </trkpt>
      <trkpt lat="44.62853" lon="5.35503">
        <ele>693</ele>
        <time>2020-05-31T10:35:09+02:00</time>
      </trkpt>
      <trkpt lat="44.62856" lon="5.3553">
        <ele>695</ele>
        <time>2020-05-31T10:35:24+02:00</time>
      </trkpt>
      <trkpt lat="44.62866" lon="5.35553">
        <ele>696</ele>
        <time>2020-05-31T10:35:40+02:00</time>
      </trkpt>
      <trkpt lat="44.62876" lon="5.35569">
        <ele>696</ele>
        <time>2020-05-31T10:35:46+02:00</time>
      </trkpt>
      <trkpt lat="44.62884" lon="5.35588">
        <ele>694</ele>
        <time>2020-05-31T10:36:05+02:00</time>
      </trkpt>
      <trkpt lat="44.62886" lon="5.35607">
        <ele>694</ele>
        <time>2020-05-31T10:36:24+02:00</time>
      </trkpt>
      <trkpt lat="44.6288" lon="5.35626">
        <ele>697</ele>
        <time>2020-05-31T10:36:40+02:00</time>
      </trkpt>
      <trkpt lat="44.62864" lon="5.35641">
        <ele>702</ele>
        <time>2020-05-31T10:36:57+02:00</time>
      </trkpt>
      <trkpt lat="44.62848" lon="5.35658">
        <ele>702</ele>
        <time>2020-05-31T10:37:12+02:00</time>
      </trkpt>
      <trkpt lat="44.62838" lon="5.35672">
        <ele>702</ele>
        <time>2020-05-31T10:37:20+02:00</time>
      </trkpt>
      <trkpt lat="44.6283" lon="5.35697">
        <ele>701</ele>
        <time>2020-05-31T10:37:38+02:00</time>
      </trkpt>
      <trkpt lat="44.62827" lon="5.35725">
        <ele>697</ele>
        <time>2020-05-31T10:37:54+02:00</time>
      </trkpt>
      <trkpt lat="44.62823" lon="5.35743">
        <ele>692</ele>
        <time>2020-05-31T10:38:10+02:00</time>
      </trkpt>
      <trkpt lat="44.62809" lon="5.35767">
        <ele>691</ele>
        <time>2020-05-31T10:38:28+02:00</time>
      </trkpt>
      <trkpt lat="44.62794" lon="5.35779">
        <ele>695</ele>
        <time>2020-05-31T10:38:48+02:00</time>
      </trkpt>
      <trkpt lat="44.62779" lon="5.35796">
        <ele>701</ele>
        <time>2020-05-31T10:38:57+02:00</time>
      </trkpt>
      <trkpt lat="44.62777" lon="5.35821">
        <ele>697</ele>
        <time>2020-05-31T10:39:09+02:00</time>
      </trkpt>
      <trkpt lat="44.62784" lon="5.35846">
        <ele>686</ele>
        <time>2020-05-31T10:39:30+02:00</time>
      </trkpt>
      <trkpt lat="44.6277" lon="5.35867">
        <ele>689</ele>
        <time>2020-05-31T10:39:50+02:00</time>
      </trkpt>
      <trkpt lat="44.62759" lon="5.35889">
        <ele>691</ele>
        <time>2020-05-31T10:40:07+02:00</time>
      </trkpt>
      <trkpt lat="44.62746" lon="5.35918">
        <ele>695</ele>
        <time>2020-05-31T10:40:28+02:00</time>
      </trkpt>
      <trkpt lat="44.62736" lon="5.35946">
        <ele>705</ele>
        <time>2020-05-31T10:40:51+02:00</time>
      </trkpt>
      <trkpt lat="44.62734" lon="5.35979">
        <ele>707</ele>
        <time>2020-05-31T10:41:06+02:00</time>
      </trkpt>
      <trkpt lat="44.62733" lon="5.36021">
        <ele>712</ele>
        <time>2020-05-31T10:41:24+02:00</time>
      </trkpt>
      <trkpt lat="44.62747" lon="5.36047">
        <ele>707</ele>
        <time>2020-05-31T10:41:49+02:00</time>
      </trkpt>
      <trkpt lat="44.62753" lon="5.36062">
        <ele>714</ele>
        <time>2020-05-31T10:42:02+02:00</time>
      </trkpt>
      <trkpt lat="44.62742" lon="5.36086">
        <ele>719</ele>
        <time>2020-05-31T10:42:10+02:00</time>
      </trkpt>
      <trkpt lat="44.6273" lon="5.36109">
        <ele>718</ele>
        <time>2020-05-31T10:43:00+02:00</time>
      </trkpt>
      <trkpt lat="44.62722" lon="5.36137">
        <ele>722</ele>
        <time>2020-05-31T10:43:40+02:00</time>
      </trkpt>
      <trkpt lat="44.62706" lon="5.36159">
        <ele>725</ele>
        <time>2020-05-31T10:44:02+02:00</time>
      </trkpt>
      <trkpt lat="44.62696" lon="5.36179">
        <ele>720</ele>
        <time>2020-05-31T10:44:20+02:00</time>
      </trkpt>
      <trkpt lat="44.62691" lon="5.36212">
        <ele>723</ele>
        <time>2020-05-31T10:44:39+02:00</time>
      </trkpt>
      <trkpt lat="44.62691" lon="5.36247">
        <ele>729</ele>
        <time>2020-05-31T10:45:00+02:00</time>
      </trkpt>
      <trkpt lat="44.62683" lon="5.36286">
        <ele>737</ele>
        <time>2020-05-31T10:46:10+02:00</time>
      </trkpt>
      <trkpt lat="44.62673" lon="5.36306">
        <ele>736</ele>
        <time>2020-05-31T10:46:30+02:00</time>
      </trkpt>
      <trkpt lat="44.62662" lon="5.36326">
        <ele>737</ele>
        <time>2020-05-31T10:46:51+02:00</time>
      </trkpt>
      <trkpt lat="44.62644" lon="5.36359">
        <ele>742</ele>
        <time>2020-05-31T10:47:37+02:00</time>
      </trkpt>
      <trkpt lat="44.62635" lon="5.36377">
        <ele>747</ele>
        <time>2020-05-31T10:48:18+02:00</time>
      </trkpt>
      <trkpt lat="44.62636" lon="5.36407">
        <ele>755</ele>
        <time>2020-05-31T10:48:55+02:00</time>
      </trkpt>
      <trkpt lat="44.62629" lon="5.36431">
        <ele>761</ele>
        <time>2020-05-31T10:50:26+02:00</time>
      </trkpt>
      <trkpt lat="44.62621" lon="5.36453">
        <ele>766</ele>
        <time>2020-05-31T10:51:10+02:00</time>
      </trkpt>
      <trkpt lat="44.62604" lon="5.36437">
        <ele>765</ele>
        <time>2020-05-31T10:51:47+02:00</time>
      </trkpt>
      <trkpt lat="44.6257" lon="5.36441">
        <ele>780</ele>
        <time>2020-05-31T10:53:01+02:00</time>
      </trkpt>
      <trkpt lat="44.62541" lon="5.36457">
        <ele>793</ele>
        <time>2020-05-31T10:53:32+02:00</time>
      </trkpt>
      <trkpt lat="44.62527" lon="5.36464">
        <ele>798</ele>
        <time>2020-05-31T10:57:15+02:00</time>
      </trkpt>
      <trkpt lat="44.62507" lon="5.36468">
        <ele>803</ele>
        <time>2020-05-31T10:57:51+02:00</time>
      </trkpt>
      <trkpt lat="44.62483" lon="5.36475">
        <ele>809</ele>
        <time>2020-05-31T10:58:29+02:00</time>
      </trkpt>
      <trkpt lat="44.62462" lon="5.36483">
        <ele>815</ele>
        <time>2020-05-31T10:58:58+02:00</time>
      </trkpt>
      <trkpt lat="44.62448" lon="5.36489">
        <ele>819</ele>
        <time>2020-05-31T10:59:23+02:00</time>
      </trkpt>
      <trkpt lat="44.62432" lon="5.36499">
        <ele>824</ele>
        <time>2020-05-31T10:59:47+02:00</time>
      </trkpt>
      <trkpt lat="44.62408" lon="5.36514">
        <ele>833</ele>
        <time>2020-05-31T11:00:53+02:00</time>
      </trkpt>
      <trkpt lat="44.62387" lon="5.36519">
        <ele>836</ele>
        <time>2020-05-31T11:01:54+02:00</time>
      </trkpt>
      <trkpt lat="44.62361" lon="5.36531">
        <ele>845</ele>
        <time>2020-05-31T11:02:43+02:00</time>
      </trkpt>
      <trkpt lat="44.62335" lon="5.3654">
        <ele>849</ele>
        <time>2020-05-31T11:03:42+02:00</time>
      </trkpt>
      <trkpt lat="44.62319" lon="5.36542">
        <ele>850</ele>
        <time>2020-05-31T11:05:25+02:00</time>
      </trkpt>
      <trkpt lat="44.62297" lon="5.36561">
        <ele>858</ele>
        <time>2020-05-31T11:06:06+02:00</time>
      </trkpt>
      <trkpt lat="44.62274" lon="5.36571">
        <ele>862</ele>
        <time>2020-05-31T11:06:19+02:00</time>
      </trkpt>
      <trkpt lat="44.62246" lon="5.36587">
        <ele>866</ele>
        <time>2020-05-31T11:07:01+02:00</time>
      </trkpt>
      <trkpt lat="44.62218" lon="5.36599">
        <ele>868</ele>
        <time>2020-05-31T11:07:51+02:00</time>
      </trkpt>
      <trkpt lat="44.62193" lon="5.36622">
        <ele>877</ele>
        <time>2020-05-31T11:08:33+02:00</time>
      </trkpt>
      <trkpt lat="44.62168" lon="5.3663">
        <ele>878</ele>
        <time>2020-05-31T11:08:58+02:00</time>
      </trkpt>
      <trkpt lat="44.62147" lon="5.3663">
        <ele>877</ele>
        <time>2020-05-31T11:09:21+02:00</time>
      </trkpt>
      <trkpt lat="44.62129" lon="5.36634">
        <ele>879</ele>
        <time>2020-05-31T11:09:44+02:00</time>
      </trkpt>
      <trkpt lat="44.62112" lon="5.36641">
        <ele>881</ele>
        <time>2020-05-31T11:10:05+02:00</time>
      </trkpt>
      <trkpt lat="44.62096" lon="5.36652">
        <ele>885</ele>
        <time>2020-05-31T11:10:29+02:00</time>
      </trkpt>
      <trkpt lat="44.62079" lon="5.36662">
        <ele>886</ele>
        <time>2020-05-31T11:10:57+02:00</time>
      </trkpt>
      <trkpt lat="44.62065" lon="5.36668">
        <ele>887</ele>
        <time>2020-05-31T11:11:19+02:00</time>
      </trkpt>
      <trkpt lat="44.62055" lon="5.36675">
        <ele>889</ele>
        <time>2020-05-31T11:11:34+02:00</time>
      </trkpt>
      <trkpt lat="44.62041" lon="5.36684">
        <ele>892</ele>
        <time>2020-05-31T11:11:48+02:00</time>
        <extensions>
          <visugpx:TrkExtension xmlns:visugpx="https://www.visugpx.com/editgpx/">
            <visugpx:node>1</visugpx:node>
            </visugpx:TrkExtension>
        </extensions>
      </trkpt>
      <trkpt lat="44.6204" lon="5.36687">
        <ele>898.1</ele>
      </trkpt>
      <trkpt lat="44.61998" lon="5.36701">
        <ele>899.9</ele>
      </trkpt>
      <trkpt lat="44.6196" lon="5.36708">
        <ele>905.2</ele>
      </trkpt>
      <trkpt lat="44.61941" lon="5.36716">
        <ele>907.6</ele>
      </trkpt>
      <trkpt lat="44.61933" lon="5.36718">
        <ele>909.5</ele>
      </trkpt>
      <trkpt lat="44.61911" lon="5.36724">
        <ele>914.5</ele>
      </trkpt>
      <trkpt lat="44.61887" lon="5.36741">
        <ele>917.2</ele>
      </trkpt>
      <trkpt lat="44.61838" lon="5.36771">
        <ele>925.7</ele>
      </trkpt>
      <trkpt lat="44.61787" lon="5.36829">
        <ele>928.4</ele>
      </trkpt>
      <trkpt lat="44.61745" lon="5.36873">
        <ele>934.2</ele>
      </trkpt>
      <trkpt lat="44.61705" lon="5.36909">
        <ele>942.2</ele>
      </trkpt>
      <trkpt lat="44.61677" lon="5.36931">
        <ele>948.7</ele>
      </trkpt>
      <trkpt lat="44.61635" lon="5.36987">
        <ele>954.9</ele>
      </trkpt>
      <trkpt lat="44.61616" lon="5.3701">
        <ele>958</ele>
      </trkpt>
      <trkpt lat="44.61604" lon="5.37014">
        <ele>960.9</ele>
      </trkpt>
      <trkpt lat="44.61584" lon="5.3703">
        <ele>962</ele>
      </trkpt>
      <trkpt lat="44.61562" lon="5.37047">
        <ele>966.3</ele>
      </trkpt>
      <trkpt lat="44.61558" lon="5.37052">
        <ele>965.2</ele>
        <extensions>
          <visugpx:TrkExtension xmlns:visugpx="https://www.visugpx.com/editgpx/">
            <visugpx:node>2</visugpx:node>
            </visugpx:TrkExtension>
        </extensions>
      </trkpt>
      <trkpt lat="44.61544" lon="5.37065">
        <ele>969.6</ele>
      </trkpt>
      <trkpt lat="44.6151" lon="5.37075">
        <ele>976.7</ele>
      </trkpt>
      <trkpt lat="44.61484" lon="5.37094">
        <ele>980.1</ele>
      </trkpt>
      <trkpt lat="44.61462" lon="5.37121">
        <ele>982.9</ele>
      </trkpt>
      <trkpt lat="44.61439" lon="5.37158">
        <ele>985.9</ele>
      </trkpt>
      <trkpt lat="44.61416" lon="5.37199">
        <ele>988.2</ele>
      </trkpt>
      <trkpt lat="44.61395" lon="5.37242">
        <ele>992.2</ele>
      </trkpt>
      <trkpt lat="44.6137" lon="5.37283">
        <ele>993.8</ele>
      </trkpt>
      <trkpt lat="44.61354" lon="5.37314">
        <ele>995.7</ele>
      </trkpt>
      <trkpt lat="44.61332" lon="5.37346">
        <ele>997.4</ele>
      </trkpt>
      <trkpt lat="44.61321" lon="5.3738">
        <ele>1000.5</ele>
      </trkpt>
      <trkpt lat="44.6132" lon="5.3741">
        <ele>1003.8</ele>
      </trkpt>
      <trkpt lat="44.61315" lon="5.37436">
        <ele>1005.9</ele>
      </trkpt>
      <trkpt lat="44.61311" lon="5.37458">
        <ele>1007.8</ele>
      </trkpt>
      <trkpt lat="44.61304" lon="5.3748">
        <ele>1009.2</ele>
      </trkpt>
      <trkpt lat="44.61298" lon="5.375">
        <ele>1011.9</ele>
      </trkpt>
      <trkpt lat="44.61279" lon="5.37533">
        <ele>1012.8</ele>
      </trkpt>
      <trkpt lat="44.61222" lon="5.37585">
        <ele>1014.2</ele>
      </trkpt>
      <trkpt lat="44.61172" lon="5.37632">
        <ele>1018</ele>
      </trkpt>
      <trkpt lat="44.61152" lon="5.37667">
        <ele>1022.5</ele>
      </trkpt>
      <trkpt lat="44.6114" lon="5.37685">
        <ele>1024.8</ele>
      </trkpt>
      <trkpt lat="44.61124" lon="5.37714">
        <ele>1027.5</ele>
      </trkpt>
      <trkpt lat="44.61106" lon="5.37726">
        <ele>1026.8</ele>
      </trkpt>
      <trkpt lat="44.61089" lon="5.37747">
        <ele>1028.3</ele>
      </trkpt>
      <trkpt lat="44.61014" lon="5.37796">
        <ele>1039.2</ele>
      </trkpt>
      <trkpt lat="44.60994" lon="5.37808">
        <ele>1041</ele>
      </trkpt>
      <trkpt lat="44.60976" lon="5.37823">
        <ele>1041.8</ele>
      </trkpt>
      <trkpt lat="44.60973" lon="5.37828">
        <ele>1041.1</ele>
      </trkpt>
      <trkpt lat="44.6097" lon="5.37834">
        <ele>1040.3</ele>
      </trkpt>
      <trkpt lat="44.60969" lon="5.37839">
        <ele>1040.6</ele>
      </trkpt>
      <trkpt lat="44.6096" lon="5.37843">
        <ele>1041.5</ele>
      </trkpt>
      <trkpt lat="44.60942" lon="5.37853">
        <ele>1042.3</ele>
      </trkpt>
      <trkpt lat="44.60915" lon="5.3787">
        <ele>1044.9</ele>
      </trkpt>
      <trkpt lat="44.60899" lon="5.37882">
        <ele>1046.5</ele>
      </trkpt>
      <trkpt lat="44.60885" lon="5.37888">
        <ele>1047.7</ele>
      </trkpt>
      <trkpt lat="44.6087" lon="5.3789">
        <ele>1049.7</ele>
      </trkpt>
      <trkpt lat="44.60853" lon="5.37891">
        <ele>1052.3</ele>
      </trkpt>
      <trkpt lat="44.60844" lon="5.37897">
        <ele>1053.4</ele>
      </trkpt>
      <trkpt lat="44.60833" lon="5.37905">
        <ele>1054.3</ele>
        <extensions>
          <visugpx:TrkExtension xmlns:visugpx="https://www.visugpx.com/editgpx/">
            <visugpx:node>3</visugpx:node>
            </visugpx:TrkExtension>
        </extensions>
      </trkpt>
      <trkpt lat="44.60826" lon="5.3791">
        <ele>1055.2</ele>
      </trkpt>
      <trkpt lat="44.60808" lon="5.37927">
        <ele>1056.9</ele>
      </trkpt>
      <trkpt lat="44.60791" lon="5.37945">
        <ele>1059.2</ele>
      </trkpt>
      <trkpt lat="44.60764" lon="5.37974">
        <ele>1063.1</ele>
      </trkpt>
      <trkpt lat="44.60741" lon="5.38001">
        <ele>1066</ele>
      </trkpt>
      <trkpt lat="44.60724" lon="5.38022">
        <ele>1067.2</ele>
      </trkpt>
      <trkpt lat="44.60721" lon="5.3803">
        <ele>1067.4</ele>
      </trkpt>
      <trkpt lat="44.60722" lon="5.38036">
        <ele>1067.9</ele>
      </trkpt>
      <trkpt lat="44.60724" lon="5.38043">
        <ele>1068.8</ele>
      </trkpt>
      <trkpt lat="44.60726" lon="5.38056">
        <ele>1070.8</ele>
      </trkpt>
      <trkpt lat="44.60722" lon="5.38076">
        <ele>1074.4</ele>
      </trkpt>
      <trkpt lat="44.60721" lon="5.38085">
        <ele>1076.2</ele>
      </trkpt>
      <trkpt lat="44.60719" lon="5.38096">
        <ele>1077.9</ele>
      </trkpt>
      <trkpt lat="44.60717" lon="5.38105">
        <ele>1079.2</ele>
      </trkpt>
      <trkpt lat="44.60714" lon="5.38116">
        <ele>1080.7</ele>
      </trkpt>
      <trkpt lat="44.6072" lon="5.38122">
        <ele>1082.6</ele>
      </trkpt>
      <trkpt lat="44.60724" lon="5.3813">
        <ele>1085</ele>
      </trkpt>
      <trkpt lat="44.60727" lon="5.38137">
        <ele>1087.2</ele>
      </trkpt>
      <trkpt lat="44.60732" lon="5.38138">
        <ele>1089</ele>
      </trkpt>
      <trkpt lat="44.6074" lon="5.38139">
        <ele>1091.8</ele>
      </trkpt>
      <trkpt lat="44.60747" lon="5.38143">
        <ele>1094.5</ele>
      </trkpt>
      <trkpt lat="44.60751" lon="5.38147">
        <ele>1096.3</ele>
      </trkpt>
      <trkpt lat="44.60755" lon="5.38153">
        <ele>1098.7</ele>
      </trkpt>
      <trkpt lat="44.60757" lon="5.3816">
        <ele>1100.4</ele>
      </trkpt>
      <trkpt lat="44.60762" lon="5.38174">
        <ele>1104.1</ele>
      </trkpt>
      <trkpt lat="44.6077" lon="5.38187">
        <ele>1108.8</ele>
      </trkpt>
      <trkpt lat="44.6078" lon="5.38207">
        <ele>1113.8</ele>
      </trkpt>
      <trkpt lat="44.60786" lon="5.38222">
        <ele>1116.5</ele>
      </trkpt>
      <trkpt lat="44.60789" lon="5.3824">
        <ele>1118.1</ele>
      </trkpt>
      <trkpt lat="44.60789" lon="5.38268">
        <ele>1119.3</ele>
      </trkpt>
      <trkpt lat="44.60787" lon="5.38304">
        <ele>1120.2</ele>
      </trkpt>
      <trkpt lat="44.60786" lon="5.38304">
        <ele>1119.9</ele>
      </trkpt>
      <trkpt lat="44.60785" lon="5.3831">
        <ele>1120.1</ele>
      </trkpt>
      <trkpt lat="44.60785" lon="5.38318">
        <ele>1121</ele>
      </trkpt>
      <trkpt lat="44.60789" lon="5.38328">
        <ele>1123.3</ele>
      </trkpt>
      <trkpt lat="44.60793" lon="5.38333">
        <ele>1124.8</ele>
      </trkpt>
      <trkpt lat="44.60795" lon="5.38337">
        <ele>1125.8</ele>
      </trkpt>
      <trkpt lat="44.60795" lon="5.38341">
        <ele>1126.3</ele>
      </trkpt>
      <trkpt lat="44.60794" lon="5.38345">
        <ele>1126.5</ele>
      </trkpt>
      <trkpt lat="44.60799" lon="5.38351">
        <ele>1128.4</ele>
      </trkpt>
      <trkpt lat="44.60804" lon="5.3836">
        <ele>1130.5</ele>
      </trkpt>
      <trkpt lat="44.60807" lon="5.38376">
        <ele>1133.1</ele>
      </trkpt>
      <trkpt lat="44.60807" lon="5.3839">
        <ele>1134.7</ele>
      </trkpt>
      <trkpt lat="44.60806" lon="5.38415">
        <ele>1138.8</ele>
      </trkpt>
      <trkpt lat="44.60801" lon="5.38436">
        <ele>1142.2</ele>
      </trkpt>
      <trkpt lat="44.60799" lon="5.3844">
        <ele>1142.9</ele>
      </trkpt>
      <trkpt lat="44.60795" lon="5.3844">
        <ele>1142.7</ele>
      </trkpt>
      <trkpt lat="44.6078" lon="5.38428">
        <ele>1139</ele>
      </trkpt>
      <trkpt lat="44.60776" lon="5.38423">
        <ele>1137.9</ele>
      </trkpt>
      <trkpt lat="44.60774" lon="5.38423">
        <ele>1138.2</ele>
      </trkpt>
      <trkpt lat="44.60772" lon="5.38425">
        <ele>1139.1</ele>
      </trkpt>
      <trkpt lat="44.60772" lon="5.3843">
        <ele>1140.3</ele>
      </trkpt>
      <trkpt lat="44.60778" lon="5.38436">
        <ele>1140.9</ele>
      </trkpt>
      <trkpt lat="44.60783" lon="5.38445">
        <ele>1143.3</ele>
      </trkpt>
      <trkpt lat="44.60783" lon="5.38464">
        <ele>1146.6</ele>
      </trkpt>
      <trkpt lat="44.60787" lon="5.3848">
        <ele>1149.3</ele>
      </trkpt>
      <trkpt lat="44.60793" lon="5.38504">
        <ele>1153.1</ele>
      </trkpt>
      <trkpt lat="44.60797" lon="5.38512">
        <ele>1154.2</ele>
      </trkpt>
      <trkpt lat="44.60802" lon="5.38519">
        <ele>1155</ele>
      </trkpt>
      <trkpt lat="44.60807" lon="5.38522">
        <ele>1155.6</ele>
      </trkpt>
      <trkpt lat="44.60809" lon="5.38526">
        <ele>1156.7</ele>
      </trkpt>
      <trkpt lat="44.60809" lon="5.38531">
        <ele>1157.5</ele>
      </trkpt>
      <trkpt lat="44.60806" lon="5.3854">
        <ele>1157.9</ele>
      </trkpt>
      <trkpt lat="44.60806" lon="5.38549">
        <ele>1159.2</ele>
      </trkpt>
      <trkpt lat="44.60804" lon="5.38562">
        <ele>1161.1</ele>
      </trkpt>
      <trkpt lat="44.60805" lon="5.38571">
        <ele>1162.3</ele>
      </trkpt>
      <trkpt lat="44.60807" lon="5.38578">
        <ele>1163.6</ele>
      </trkpt>
      <trkpt lat="44.60806" lon="5.38584">
        <ele>1164.2</ele>
      </trkpt>
      <trkpt lat="44.60804" lon="5.38587">
        <ele>1164.9</ele>
      </trkpt>
      <trkpt lat="44.60802" lon="5.38592">
        <ele>1166</ele>
      </trkpt>
      <trkpt lat="44.60801" lon="5.38596">
        <ele>1166.9</ele>
      </trkpt>
      <trkpt lat="44.608" lon="5.38605">
        <ele>1168.5</ele>
      </trkpt>
      <trkpt lat="44.608" lon="5.38614">
        <ele>1170.1</ele>
      </trkpt>
      <trkpt lat="44.608" lon="5.38622">
        <ele>1171.5</ele>
      </trkpt>
      <trkpt lat="44.60801" lon="5.38628">
        <ele>1172.4</ele>
      </trkpt>
      <trkpt lat="44.608" lon="5.38634">
        <ele>1173.6</ele>
      </trkpt>
      <trkpt lat="44.60797" lon="5.3864">
        <ele>1174.8</ele>
      </trkpt>
      <trkpt lat="44.60795" lon="5.38645">
        <ele>1175.9</ele>
      </trkpt>
      <trkpt lat="44.60794" lon="5.38659">
        <ele>1178.6</ele>
      </trkpt>
      <trkpt lat="44.60792" lon="5.38666">
        <ele>1179.9</ele>
      </trkpt>
      <trkpt lat="44.60788" lon="5.38672">
        <ele>1181.2</ele>
      </trkpt>
      <trkpt lat="44.60775" lon="5.38677">
        <ele>1182.6</ele>
      </trkpt>
      <trkpt lat="44.60773" lon="5.38686">
        <ele>1184.6</ele>
      </trkpt>
      <trkpt lat="44.60771" lon="5.387">
        <ele>1187.5</ele>
      </trkpt>
      <trkpt lat="44.60768" lon="5.38712">
        <ele>1190.2</ele>
      </trkpt>
      <trkpt lat="44.60764" lon="5.38726">
        <ele>1193.4</ele>
      </trkpt>
      <trkpt lat="44.60761" lon="5.38734">
        <ele>1195.4</ele>
      </trkpt>
      <trkpt lat="44.60761" lon="5.3874">
        <ele>1196.8</ele>
      </trkpt>
      <trkpt lat="44.60762" lon="5.38747">
        <ele>1198.3</ele>
      </trkpt>
      <trkpt lat="44.60762" lon="5.38754">
        <ele>1200.1</ele>
      </trkpt>
      <trkpt lat="44.6076" lon="5.38761">
        <ele>1202.1</ele>
      </trkpt>
      <trkpt lat="44.60756" lon="5.38776">
        <ele>1206</ele>
      </trkpt>
      <trkpt lat="44.60753" lon="5.38785">
        <ele>1208.1</ele>
      </trkpt>
      <trkpt lat="44.60751" lon="5.38798">
        <ele>1211.2</ele>
      </trkpt>
      <trkpt lat="44.60751" lon="5.38806">
        <ele>1213.3</ele>
      </trkpt>
      <trkpt lat="44.6075" lon="5.38822">
        <ele>1217.1</ele>
      </trkpt>
      <trkpt lat="44.60744" lon="5.38841">
        <ele>1221.6</ele>
      </trkpt>
      <trkpt lat="44.60735" lon="5.38869">
        <ele>1227.3</ele>
      </trkpt>
      <trkpt lat="44.60733" lon="5.38878">
        <ele>1229.3</ele>
      </trkpt>
      <trkpt lat="44.60732" lon="5.38886">
        <ele>1231</ele>
      </trkpt>
      <trkpt lat="44.60732" lon="5.38897">
        <ele>1233.6</ele>
      </trkpt>
      <trkpt lat="44.6073" lon="5.38906">
        <ele>1235.4</ele>
      </trkpt>
      <trkpt lat="44.60725" lon="5.38917">
        <ele>1237.4</ele>
      </trkpt>
      <trkpt lat="44.60713" lon="5.38928">
        <ele>1241.7</ele>
      </trkpt>
      <trkpt lat="44.6071" lon="5.38933">
        <ele>1243.5</ele>
      </trkpt>
      <trkpt lat="44.60709" lon="5.3894">
        <ele>1245.3</ele>
      </trkpt>
      <trkpt lat="44.60711" lon="5.38952">
        <ele>1247.7</ele>
      </trkpt>
      <trkpt lat="44.60715" lon="5.38964">
        <ele>1249.5</ele>
      </trkpt>
      <trkpt lat="44.60717" lon="5.38971">
        <ele>1250.7</ele>
      </trkpt>
      <trkpt lat="44.60717" lon="5.38979">
        <ele>1252.4</ele>
      </trkpt>
      <trkpt lat="44.60719" lon="5.38988">
        <ele>1254.1</ele>
      </trkpt>
      <trkpt lat="44.60723" lon="5.38998">
        <ele>1255.6</ele>
      </trkpt>
      <trkpt lat="44.60722" lon="5.39004">
        <ele>1256.9</ele>
      </trkpt>
      <trkpt lat="44.60717" lon="5.39008">
        <ele>1258.9</ele>
      </trkpt>
      <trkpt lat="44.60698" lon="5.39006">
        <ele>1262.5</ele>
      </trkpt>
      <trkpt lat="44.60686" lon="5.39005">
        <ele>1265.8</ele>
      </trkpt>
      <trkpt lat="44.60673" lon="5.38997">
        <ele>1268.2</ele>
      </trkpt>
      <trkpt lat="44.60666" lon="5.38988">
        <ele>1268.2</ele>
      </trkpt>
      <trkpt lat="44.6066" lon="5.38976">
        <ele>1266.9</ele>
      </trkpt>
      <trkpt lat="44.60646" lon="5.38958">
        <ele>1267.3</ele>
      </trkpt>
      <trkpt lat="44.60635" lon="5.38952">
        <ele>1269.4</ele>
      </trkpt>
      <trkpt lat="44.60631" lon="5.38945">
        <ele>1269.4</ele>
      </trkpt>
      <trkpt lat="44.60622" lon="5.38933">
        <ele>1270.1</ele>
      </trkpt>
      <trkpt lat="44.60615" lon="5.38918">
        <ele>1269.9</ele>
      </trkpt>
      <trkpt lat="44.60605" lon="5.38905">
        <ele>1270.2</ele>
      </trkpt>
      <trkpt lat="44.60595" lon="5.3889">
        <ele>1269.7</ele>
      </trkpt>
      <trkpt lat="44.6059" lon="5.38884">
        <ele>1269.5</ele>
      </trkpt>
      <trkpt lat="44.60583" lon="5.38873">
        <ele>1268.6</ele>
      </trkpt>
      <trkpt lat="44.60579" lon="5.38867">
        <ele>1268.1</ele>
      </trkpt>
      <trkpt lat="44.60574" lon="5.38866">
        <ele>1268.7</ele>
      </trkpt>
      <trkpt lat="44.60562" lon="5.38864">
        <ele>1270.5</ele>
      </trkpt>
      <trkpt lat="44.60547" lon="5.38853">
        <ele>1270.8</ele>
      </trkpt>
      <trkpt lat="44.6053" lon="5.3884">
        <ele>1270.9</ele>
      </trkpt>
      <trkpt lat="44.60523" lon="5.38836">
        <ele>1271</ele>
      </trkpt>
      <trkpt lat="44.60513" lon="5.38833">
        <ele>1271.5</ele>
      </trkpt>
      <trkpt lat="44.60498" lon="5.38828">
        <ele>1272.5</ele>
      </trkpt>
      <trkpt lat="44.60476" lon="5.38814">
        <ele>1273.4</ele>
      </trkpt>
      <trkpt lat="44.60459" lon="5.38802">
        <ele>1272.9</ele>
      </trkpt>
      <trkpt lat="44.60455" lon="5.38799">
        <ele>1272.6</ele>
      </trkpt>
      <trkpt lat="44.60452" lon="5.38802">
        <ele>1273.2</ele>
      </trkpt>
      <trkpt lat="44.60452" lon="5.38818">
        <ele>1275.4</ele>
      </trkpt>
      <trkpt lat="44.60452" lon="5.38847">
        <ele>1279.1</ele>
      </trkpt>
      <trkpt lat="44.60457" lon="5.38866">
        <ele>1281.4</ele>
      </trkpt>
      <trkpt lat="44.60469" lon="5.38884">
        <ele>1284.2</ele>
      </trkpt>
      <trkpt lat="44.60475" lon="5.38897">
        <ele>1286.6</ele>
      </trkpt>
      <trkpt lat="44.60484" lon="5.38917">
        <ele>1290.2</ele>
      </trkpt>
      <trkpt lat="44.60493" lon="5.38929">
        <ele>1292.1</ele>
      </trkpt>
      <trkpt lat="44.60497" lon="5.38938">
        <ele>1293.7</ele>
      </trkpt>
      <trkpt lat="44.60507" lon="5.38952">
        <ele>1295.3</ele>
      </trkpt>
      <trkpt lat="44.60516" lon="5.38968">
        <ele>1296.7</ele>
      </trkpt>
      <trkpt lat="44.60531" lon="5.3898">
        <ele>1296.6</ele>
      </trkpt>
      <trkpt lat="44.60546" lon="5.38999">
        <ele>1297.2</ele>
      </trkpt>
      <trkpt lat="44.60557" lon="5.39014">
        <ele>1298.3</ele>
      </trkpt>
      <trkpt lat="44.60568" lon="5.39025">
        <ele>1298.3</ele>
      </trkpt>
      <trkpt lat="44.60573" lon="5.39032">
        <ele>1298.8</ele>
      </trkpt>
      <trkpt lat="44.60574" lon="5.39041">
        <ele>1300.5</ele>
      </trkpt>
      <trkpt lat="44.60573" lon="5.39051">
        <ele>1302.9</ele>
      </trkpt>
      <trkpt lat="44.6057" lon="5.39058">
        <ele>1305</ele>
      </trkpt>
      <trkpt lat="44.60567" lon="5.39065">
        <ele>1307.3</ele>
      </trkpt>
      <trkpt lat="44.60568" lon="5.39084">
        <ele>1311.9</ele>
      </trkpt>
      <trkpt lat="44.60567" lon="5.3909">
        <ele>1313.7</ele>
      </trkpt>
      <trkpt lat="44.60563" lon="5.39103">
        <ele>1317.8</ele>
      </trkpt>
      <trkpt lat="44.60562" lon="5.39115">
        <ele>1321.2</ele>
      </trkpt>
      <trkpt lat="44.60564" lon="5.3913">
        <ele>1325</ele>
      </trkpt>
      <trkpt lat="44.60565" lon="5.39141">
        <ele>1327.8</ele>
      </trkpt>
      <trkpt lat="44.60563" lon="5.3916">
        <ele>1332.4</ele>
      </trkpt>
      <trkpt lat="44.60561" lon="5.3917">
        <ele>1335</ele>
      </trkpt>
      <trkpt lat="44.60555" lon="5.39182">
        <ele>1338.4</ele>
      </trkpt>
      <trkpt lat="44.60552" lon="5.39192">
        <ele>1340.7</ele>
      </trkpt>
      <trkpt lat="44.60548" lon="5.3921">
        <ele>1342.5</ele>
      </trkpt>
      <trkpt lat="44.60544" lon="5.39224">
        <ele>1343.2</ele>
      </trkpt>
      <trkpt lat="44.60534" lon="5.39222">
        <ele>1343.8</ele>
        <extensions>
          <visugpx:TrkExtension xmlns:visugpx="https://www.visugpx.com/editgpx/">
            <visugpx:node>4</visugpx:node>
            </visugpx:TrkExtension>
        </extensions>
      </trkpt>
      <trkpt lat="44.60443" lon="5.392">
        <ele>1347.2</ele>
      </trkpt>
      <trkpt lat="44.60392" lon="5.39186">
        <ele>1349</ele>
      </trkpt>
      <trkpt lat="44.60328" lon="5.39185">
        <ele>1351.7</ele>
      </trkpt>
      <trkpt lat="44.60173" lon="5.39149">
        <ele>1353.1</ele>
        <extensions>
          <visugpx:TrkExtension xmlns:visugpx="https://www.visugpx.com/editgpx/">
            <visugpx:node>5</visugpx:node>
            </visugpx:TrkExtension>
        </extensions>
      </trkpt>
      <trkpt lat="44.60131" lon="5.39154">
        <ele>1353</ele>
        <time>2020-05-31T13:28:08+02:00</time>
      </trkpt>
      <trkpt lat="44.60111" lon="5.39149">
        <ele>1354</ele>
        <time>2020-05-31T13:28:30+02:00</time>
      </trkpt>
      <trkpt lat="44.60093" lon="5.39144">
        <ele>1356</ele>
        <time>2020-05-31T13:28:51+02:00</time>
      </trkpt>
      <trkpt lat="44.60077" lon="5.39135">
        <ele>1357</ele>
        <time>2020-05-31T13:29:10+02:00</time>
      </trkpt>
      <trkpt lat="44.60066" lon="5.39127">
        <ele>1356</ele>
        <time>2020-05-31T13:29:29+02:00</time>
      </trkpt>
      <trkpt lat="44.60052" lon="5.39114">
        <ele>1357</ele>
        <time>2020-05-31T13:29:48+02:00</time>
      </trkpt>
      <trkpt lat="44.6004" lon="5.39103">
        <ele>1355</ele>
        <time>2020-05-31T13:30:05+02:00</time>
      </trkpt>
      <trkpt lat="44.60029" lon="5.39091">
        <ele>1351</ele>
        <time>2020-05-31T13:30:18+02:00</time>
      </trkpt>
      <trkpt lat="44.60021" lon="5.39085">
        <ele>1350</ele>
        <time>2020-05-31T13:31:45+02:00</time>
      </trkpt>
      <trkpt lat="44.60008" lon="5.39065">
        <ele>1345</ele>
        <time>2020-05-31T13:32:06+02:00</time>
      </trkpt>
      <trkpt lat="44.59998" lon="5.39054">
        <ele>1343</ele>
        <time>2020-05-31T13:32:19+02:00</time>
      </trkpt>
      <trkpt lat="44.59984" lon="5.39045">
        <ele>1342</ele>
        <time>2020-05-31T13:32:36+02:00</time>
      </trkpt>
      <trkpt lat="44.59966" lon="5.39035">
        <ele>1340</ele>
        <time>2020-05-31T13:33:10+02:00</time>
      </trkpt>
      <trkpt lat="44.59953" lon="5.39024">
        <ele>1339</ele>
        <time>2020-05-31T13:33:28+02:00</time>
      </trkpt>
      <trkpt lat="44.5994" lon="5.39013">
        <ele>1339</ele>
        <time>2020-05-31T13:33:46+02:00</time>
      </trkpt>
      <trkpt lat="44.59922" lon="5.38998">
        <ele>1341</ele>
        <time>2020-05-31T13:34:26+02:00</time>
      </trkpt>
      <trkpt lat="44.59911" lon="5.38991">
        <ele>1343</ele>
        <time>2020-05-31T13:34:45+02:00</time>
      </trkpt>
      <trkpt lat="44.599" lon="5.38986">
        <ele>1346</ele>
        <time>2020-05-31T13:35:03+02:00</time>
      </trkpt>
      <trkpt lat="44.5988" lon="5.38977">
        <ele>1351</ele>
        <time>2020-05-31T13:35:38+02:00</time>
      </trkpt>
      <trkpt lat="44.59863" lon="5.38973">
        <ele>1354</ele>
        <time>2020-05-31T13:36:12+02:00</time>
      </trkpt>
      <trkpt lat="44.59843" lon="5.3897">
        <ele>1359</ele>
        <time>2020-05-31T13:36:48+02:00</time>
      </trkpt>
      <trkpt lat="44.59832" lon="5.38963">
        <ele>1362</ele>
        <time>2020-05-31T13:37:05+02:00</time>
      </trkpt>
      <trkpt lat="44.59818" lon="5.38954">
        <ele>1364</ele>
        <time>2020-05-31T13:37:24+02:00</time>
      </trkpt>
      <trkpt lat="44.59805" lon="5.38944">
        <ele>1369</ele>
        <time>2020-05-31T13:37:42+02:00</time>
      </trkpt>
      <trkpt lat="44.59787" lon="5.38935">
        <ele>1366</ele>
        <time>2020-05-31T13:38:03+02:00</time>
      </trkpt>
      <trkpt lat="44.5977" lon="5.38928">
        <ele>1365</ele>
        <time>2020-05-31T13:38:22+02:00</time>
      </trkpt>
      <trkpt lat="44.59751" lon="5.38917">
        <ele>1368</ele>
        <time>2020-05-31T13:38:44+02:00</time>
      </trkpt>
      <trkpt lat="44.59729" lon="5.38915">
        <ele>1366</ele>
        <time>2020-05-31T13:39:07+02:00</time>
      </trkpt>
      <trkpt lat="44.59712" lon="5.38911">
        <ele>1365</ele>
        <time>2020-05-31T13:39:27+02:00</time>
      </trkpt>
      <trkpt lat="44.59694" lon="5.3891">
        <ele>1363</ele>
        <time>2020-05-31T13:39:49+02:00</time>
      </trkpt>
      <trkpt lat="44.59677" lon="5.38905">
        <ele>1360</ele>
        <time>2020-05-31T13:40:10+02:00</time>
      </trkpt>
      <trkpt lat="44.59662" lon="5.38901">
        <ele>1357</ele>
        <time>2020-05-31T13:40:28+02:00</time>
      </trkpt>
      <trkpt lat="44.59642" lon="5.38893">
        <ele>1355</ele>
        <time>2020-05-31T13:40:49+02:00</time>
      </trkpt>
      <trkpt lat="44.59626" lon="5.38887">
        <ele>1352</ele>
        <time>2020-05-31T13:41:08+02:00</time>
      </trkpt>
      <trkpt lat="44.59614" lon="5.3888">
        <ele>1350</ele>
        <time>2020-05-31T13:41:43+02:00</time>
      </trkpt>
      <trkpt lat="44.59601" lon="5.38881">
        <ele>1349</ele>
        <time>2020-05-31T13:43:04+02:00</time>
      </trkpt>
      <trkpt lat="44.59579" lon="5.38874">
        <ele>1349</ele>
        <time>2020-05-31T13:43:35+02:00</time>
      </trkpt>
      <trkpt lat="44.59558" lon="5.3888">
        <ele>1349</ele>
        <time>2020-05-31T14:34:51+02:00</time>
      </trkpt>
      <trkpt lat="44.59545" lon="5.38866">
        <ele>1350</ele>
        <time>2020-05-31T14:35:40+02:00</time>
      </trkpt>
      <trkpt lat="44.59532" lon="5.38863">
        <ele>1350</ele>
        <time>2020-05-31T14:35:56+02:00</time>
      </trkpt>
      <trkpt lat="44.5952" lon="5.3886">
        <ele>1350</ele>
        <time>2020-05-31T14:36:11+02:00</time>
      </trkpt>
      <trkpt lat="44.59504" lon="5.38859">
        <ele>1350</ele>
        <time>2020-05-31T14:36:29+02:00</time>
      </trkpt>
      <trkpt lat="44.5949" lon="5.38854">
        <ele>1351</ele>
        <time>2020-05-31T14:36:45+02:00</time>
      </trkpt>
      <trkpt lat="44.59474" lon="5.38846">
        <ele>1353</ele>
        <time>2020-05-31T14:37:08+02:00</time>
      </trkpt>
      <trkpt lat="44.59453" lon="5.38838">
        <ele>1359</ele>
        <time>2020-05-31T14:37:39+02:00</time>
      </trkpt>
      <trkpt lat="44.59431" lon="5.38845">
        <ele>1364</ele>
        <time>2020-05-31T14:38:12+02:00</time>
      </trkpt>
      <trkpt lat="44.59415" lon="5.38859">
        <ele>1365</ele>
        <time>2020-05-31T14:38:48+02:00</time>
      </trkpt>
      <trkpt lat="44.59399" lon="5.38859">
        <ele>1365</ele>
        <time>2020-05-31T14:39:09+02:00</time>
      </trkpt>
      <trkpt lat="44.59387" lon="5.38856">
        <ele>1366</ele>
        <time>2020-05-31T14:39:27+02:00</time>
      </trkpt>
      <trkpt lat="44.59377" lon="5.38847">
        <ele>1369</ele>
        <time>2020-05-31T14:39:44+02:00</time>
      </trkpt>
      <trkpt lat="44.59355" lon="5.38849">
        <ele>1371</ele>
        <time>2020-05-31T14:40:18+02:00</time>
      </trkpt>
      <trkpt lat="44.59341" lon="5.3885">
        <ele>1374</ele>
        <time>2020-05-31T14:40:36+02:00</time>
      </trkpt>
      <trkpt lat="44.59327" lon="5.38848">
        <ele>1376</ele>
        <time>2020-05-31T14:40:55+02:00</time>
      </trkpt>
      <trkpt lat="44.59315" lon="5.38846">
        <ele>1378</ele>
        <time>2020-05-31T14:41:13+02:00</time>
      </trkpt>
      <trkpt lat="44.59294" lon="5.38835">
        <ele>1384</ele>
        <time>2020-05-31T14:41:47+02:00</time>
      </trkpt>
      <trkpt lat="44.59278" lon="5.38821">
        <ele>1390</ele>
        <time>2020-05-31T14:42:21+02:00</time>
      </trkpt>
      <trkpt lat="44.59261" lon="5.38811">
        <ele>1395</ele>
        <time>2020-05-31T14:42:58+02:00</time>
      </trkpt>
      <trkpt lat="44.59247" lon="5.38789">
        <ele>1402</ele>
        <time>2020-05-31T14:43:38+02:00</time>
      </trkpt>
      <trkpt lat="44.59232" lon="5.38773">
        <ele>1408</ele>
        <time>2020-05-31T14:44:16+02:00</time>
      </trkpt>
      <trkpt lat="44.59219" lon="5.38748">
        <ele>1414</ele>
        <time>2020-05-31T14:44:57+02:00</time>
      </trkpt>
      <trkpt lat="44.59207" lon="5.3873">
        <ele>1421</ele>
        <time>2020-05-31T14:45:32+02:00</time>
      </trkpt>
      <trkpt lat="44.59195" lon="5.38743">
        <ele>1424</ele>
        <time>2020-05-31T14:46:07+02:00</time>
      </trkpt>
      <trkpt lat="44.59175" lon="5.38755">
        <ele>1428</ele>
        <time>2020-05-31T14:46:46+02:00</time>
      </trkpt>
      <trkpt lat="44.59162" lon="5.38759">
        <ele>1430</ele>
        <time>2020-05-31T14:47:06+02:00</time>
      </trkpt>
      <trkpt lat="44.5914" lon="5.38763">
        <ele>1433</ele>
        <time>2020-05-31T14:48:12+02:00</time>
      </trkpt>
      <trkpt lat="44.59131" lon="5.38763">
        <ele>1434</ele>
        <time>2020-05-31T14:48:32+02:00</time>
      </trkpt>
      <trkpt lat="44.59118" lon="5.38759">
        <ele>1436</ele>
        <time>2020-05-31T14:48:51+02:00</time>
      </trkpt>
      <trkpt lat="44.59101" lon="5.38755">
        <ele>1439</ele>
        <time>2020-05-31T14:49:12+02:00</time>
      </trkpt>
      <trkpt lat="44.59086" lon="5.3875">
        <ele>1442</ele>
        <time>2020-05-31T14:49:33+02:00</time>
      </trkpt>
      <trkpt lat="44.59069" lon="5.38745">
        <ele>1444</ele>
        <time>2020-05-31T14:49:53+02:00</time>
      </trkpt>
      <trkpt lat="44.59055" lon="5.3874">
        <ele>1446</ele>
        <time>2020-05-31T14:50:09+02:00</time>
      </trkpt>
      <trkpt lat="44.59037" lon="5.38728">
        <ele>1448</ele>
        <time>2020-05-31T14:50:31+02:00</time>
      </trkpt>
      <trkpt lat="44.59024" lon="5.3872">
        <ele>1449</ele>
        <time>2020-05-31T14:50:46+02:00</time>
      </trkpt>
      <trkpt lat="44.59009" lon="5.38716">
        <ele>1448</ele>
        <time>2020-05-31T14:51:07+02:00</time>
      </trkpt>
      <trkpt lat="44.58989" lon="5.38711">
        <ele>1449</ele>
        <time>2020-05-31T14:51:44+02:00</time>
      </trkpt>
      <trkpt lat="44.58977" lon="5.3871">
        <ele>1450</ele>
        <time>2020-05-31T14:52:01+02:00</time>
      </trkpt>
      <trkpt lat="44.58963" lon="5.38708">
        <ele>1453</ele>
        <time>2020-05-31T14:52:21+02:00</time>
      </trkpt>
      <trkpt lat="44.5895" lon="5.38707">
        <ele>1456</ele>
        <time>2020-05-31T14:52:39+02:00</time>
      </trkpt>
      <trkpt lat="44.58937" lon="5.38711">
        <ele>1458</ele>
        <time>2020-05-31T14:52:57+02:00</time>
      </trkpt>
      <trkpt lat="44.58925" lon="5.38708">
        <ele>1462</ele>
        <time>2020-05-31T14:53:15+02:00</time>
      </trkpt>
      <trkpt lat="44.58919" lon="5.38679">
        <ele>1468</ele>
        <time>2020-05-31T15:00:23+02:00</time>
      </trkpt>
      <trkpt lat="44.58921" lon="5.38655">
        <ele>1466</ele>
        <time>2020-05-31T15:01:46+02:00</time>
      </trkpt>
      <trkpt lat="44.58919" lon="5.38624">
        <ele>1463</ele>
        <time>2020-05-31T15:02:19+02:00</time>
      </trkpt>
      <trkpt lat="44.58918" lon="5.38598">
        <ele>1460</ele>
        <time>2020-05-31T15:02:42+02:00</time>
      </trkpt>
      <trkpt lat="44.58917" lon="5.38574">
        <ele>1458</ele>
        <time>2020-05-31T15:03:02+02:00</time>
      </trkpt>
      <trkpt lat="44.58918" lon="5.38552">
        <ele>1457</ele>
        <time>2020-05-31T15:03:21+02:00</time>
      </trkpt>
      <trkpt lat="44.58925" lon="5.38529">
        <ele>1455</ele>
        <time>2020-05-31T15:03:40+02:00</time>
      </trkpt>
      <trkpt lat="44.58935" lon="5.38502">
        <ele>1454</ele>
        <time>2020-05-31T15:04:14+02:00</time>
      </trkpt>
      <trkpt lat="44.58942" lon="5.38479">
        <ele>1455</ele>
        <time>2020-05-31T15:04:45+02:00</time>
      </trkpt>
      <trkpt lat="44.58945" lon="5.3846">
        <ele>1456</ele>
        <time>2020-05-31T15:05:03+02:00</time>
      </trkpt>
      <trkpt lat="44.58945" lon="5.3843">
        <ele>1457</ele>
        <time>2020-05-31T15:05:28+02:00</time>
      </trkpt>
      <trkpt lat="44.58943" lon="5.3841">
        <ele>1456</ele>
        <time>2020-05-31T15:05:48+02:00</time>
      </trkpt>
      <trkpt lat="44.58939" lon="5.38385">
        <ele>1454</ele>
        <time>2020-05-31T15:06:11+02:00</time>
      </trkpt>
      <trkpt lat="44.58937" lon="5.38366">
        <ele>1453</ele>
        <time>2020-05-31T15:06:27+02:00</time>
      </trkpt>
      <trkpt lat="44.5894" lon="5.38337">
        <ele>1451</ele>
        <time>2020-05-31T15:06:52+02:00</time>
      </trkpt>
      <trkpt lat="44.58947" lon="5.3831">
        <ele>1449</ele>
        <time>2020-05-31T15:07:16+02:00</time>
      </trkpt>
      <trkpt lat="44.5895" lon="5.38283">
        <ele>1447</ele>
        <time>2020-05-31T15:07:40+02:00</time>
      </trkpt>
      <trkpt lat="44.58961" lon="5.38259">
        <ele>1444</ele>
        <time>2020-05-31T15:08:18+02:00</time>
      </trkpt>
      <trkpt lat="44.5897" lon="5.38241">
        <ele>1441</ele>
        <time>2020-05-31T15:09:06+02:00</time>
      </trkpt>
      <trkpt lat="44.58981" lon="5.38224">
        <ele>1439</ele>
        <time>2020-05-31T15:09:26+02:00</time>
      </trkpt>
      <trkpt lat="44.58987" lon="5.38204">
        <ele>1436</ele>
        <time>2020-05-31T15:09:58+02:00</time>
      </trkpt>
      <trkpt lat="44.58991" lon="5.38187">
        <ele>1433</ele>
        <time>2020-05-31T15:10:16+02:00</time>
      </trkpt>
      <trkpt lat="44.58994" lon="5.3817">
        <ele>1429</ele>
        <time>2020-05-31T15:10:33+02:00</time>
      </trkpt>
      <trkpt lat="44.59002" lon="5.3815">
        <ele>1426</ele>
        <time>2020-05-31T15:11:51+02:00</time>
      </trkpt>
      <trkpt lat="44.59013" lon="5.38127">
        <ele>1422</ele>
        <time>2020-05-31T15:12:47+02:00</time>
      </trkpt>
      <trkpt lat="44.5902" lon="5.38109">
        <ele>1419</ele>
        <time>2020-05-31T15:13:25+02:00</time>
      </trkpt>
      <trkpt lat="44.59025" lon="5.38094">
        <ele>1416</ele>
        <time>2020-05-31T15:13:46+02:00</time>
      </trkpt>
      <trkpt lat="44.59029" lon="5.38077">
        <ele>1413</ele>
        <time>2020-05-31T15:14:03+02:00</time>
      </trkpt>
      <trkpt lat="44.59031" lon="5.38055">
        <ele>1410</ele>
        <time>2020-05-31T15:14:23+02:00</time>
      </trkpt>
      <trkpt lat="44.59031" lon="5.38031">
        <ele>1409</ele>
        <time>2020-05-31T15:14:44+02:00</time>
      </trkpt>
      <trkpt lat="44.59031" lon="5.38024">
        <ele>1408</ele>
        <time>2020-05-31T15:15:01+02:00</time>
      </trkpt>
      <trkpt lat="44.59027" lon="5.37999">
        <ele>1406</ele>
        <time>2020-05-31T15:15:23+02:00</time>
      </trkpt>
      <trkpt lat="44.59021" lon="5.37985">
        <ele>1405</ele>
        <time>2020-05-31T15:15:38+02:00</time>
      </trkpt>
      <trkpt lat="44.59015" lon="5.37964">
        <ele>1403</ele>
        <time>2020-05-31T15:15:58+02:00</time>
      </trkpt>
      <trkpt lat="44.59007" lon="5.37945">
        <ele>1401</ele>
        <time>2020-05-31T15:16:15+02:00</time>
      </trkpt>
      <trkpt lat="44.59001" lon="5.37919">
        <ele>1397</ele>
        <time>2020-05-31T15:16:36+02:00</time>
      </trkpt>
      <trkpt lat="44.59" lon="5.37903">
        <ele>1396</ele>
        <time>2020-05-31T15:16:52+02:00</time>
      </trkpt>
      <trkpt lat="44.58994" lon="5.37887">
        <ele>1395</ele>
        <time>2020-05-31T15:17:08+02:00</time>
      </trkpt>
      <trkpt lat="44.5899" lon="5.3786">
        <ele>1392</ele>
        <time>2020-05-31T15:17:36+02:00</time>
      </trkpt>
      <trkpt lat="44.58981" lon="5.37835">
        <ele>1388</ele>
        <time>2020-05-31T15:17:55+02:00</time>
      </trkpt>
      <trkpt lat="44.58976" lon="5.37815">
        <ele>1385</ele>
        <time>2020-05-31T15:18:13+02:00</time>
      </trkpt>
      <trkpt lat="44.5897" lon="5.37785">
        <ele>1380</ele>
        <time>2020-05-31T15:18:43+02:00</time>
      </trkpt>
      <trkpt lat="44.58967" lon="5.37765">
        <ele>1377</ele>
        <time>2020-05-31T15:19:01+02:00</time>
      </trkpt>
      <trkpt lat="44.58961" lon="5.37736">
        <ele>1373</ele>
        <time>2020-05-31T15:19:31+02:00</time>
      </trkpt>
      <trkpt lat="44.58961" lon="5.37722">
        <ele>1372</ele>
        <time>2020-05-31T15:19:45+02:00</time>
      </trkpt>
      <trkpt lat="44.58964" lon="5.377">
        <ele>1369</ele>
        <time>2020-05-31T15:20:03+02:00</time>
      </trkpt>
      <trkpt lat="44.58968" lon="5.37686">
        <ele>1367</ele>
        <time>2020-05-31T15:20:21+02:00</time>
      </trkpt>
      <trkpt lat="44.58972" lon="5.37666">
        <ele>1364</ele>
        <time>2020-05-31T15:20:39+02:00</time>
      </trkpt>
      <trkpt lat="44.58979" lon="5.37642">
        <ele>1362</ele>
        <time>2020-05-31T15:21:00+02:00</time>
      </trkpt>
      <trkpt lat="44.58988" lon="5.37619">
        <ele>1361</ele>
        <time>2020-05-31T15:21:21+02:00</time>
      </trkpt>
      <trkpt lat="44.58997" lon="5.37602">
        <ele>1360</ele>
        <time>2020-05-31T15:21:36+02:00</time>
      </trkpt>
      <trkpt lat="44.59005" lon="5.3759">
        <ele>1359</ele>
        <time>2020-05-31T15:21:53+02:00</time>
      </trkpt>
      <trkpt lat="44.59018" lon="5.37572">
        <ele>1358</ele>
        <time>2020-05-31T15:22:14+02:00</time>
      </trkpt>
      <trkpt lat="44.59028" lon="5.37562">
        <ele>1357</ele>
        <time>2020-05-31T15:22:29+02:00</time>
      </trkpt>
      <trkpt lat="44.5904" lon="5.37549">
        <ele>1355</ele>
        <time>2020-05-31T15:22:48+02:00</time>
      </trkpt>
      <trkpt lat="44.59051" lon="5.37536">
        <ele>1352</ele>
        <time>2020-05-31T15:23:08+02:00</time>
      </trkpt>
      <trkpt lat="44.59066" lon="5.3752">
        <ele>1349</ele>
        <time>2020-05-31T15:23:29+02:00</time>
      </trkpt>
      <trkpt lat="44.5908" lon="5.37498">
        <ele>1347</ele>
        <time>2020-05-31T15:23:50+02:00</time>
      </trkpt>
      <trkpt lat="44.59095" lon="5.37466">
        <ele>1345</ele>
        <time>2020-05-31T15:24:18+02:00</time>
      </trkpt>
      <trkpt lat="44.59102" lon="5.37452">
        <ele>1343</ele>
        <time>2020-05-31T15:24:32+02:00</time>
      </trkpt>
      <trkpt lat="44.5912" lon="5.37435">
        <ele>1340</ele>
        <time>2020-05-31T15:24:56+02:00</time>
      </trkpt>
      <trkpt lat="44.59134" lon="5.37413">
        <ele>1337</ele>
        <time>2020-05-31T15:25:43+02:00</time>
      </trkpt>
      <trkpt lat="44.59149" lon="5.37392">
        <ele>1335</ele>
        <time>2020-05-31T15:26:14+02:00</time>
      </trkpt>
      <trkpt lat="44.59154" lon="5.37385">
        <ele>1334</ele>
        <time>2020-05-31T15:26:21+02:00</time>
      </trkpt>
      <trkpt lat="44.59164" lon="5.37365">
        <ele>1332</ele>
        <time>2020-05-31T15:26:40+02:00</time>
      </trkpt>
      <trkpt lat="44.59177" lon="5.37349">
        <ele>1332</ele>
        <time>2020-05-31T15:26:59+02:00</time>
      </trkpt>
      <trkpt lat="44.59185" lon="5.37336">
        <ele>1332</ele>
        <time>2020-05-31T15:27:13+02:00</time>
      </trkpt>
      <trkpt lat="44.59195" lon="5.37316">
        <ele>1331</ele>
        <time>2020-05-31T15:27:35+02:00</time>
      </trkpt>
      <trkpt lat="44.59203" lon="5.37298">
        <ele>1330</ele>
        <time>2020-05-31T15:27:53+02:00</time>
      </trkpt>
      <trkpt lat="44.59208" lon="5.37268">
        <ele>1328</ele>
        <time>2020-05-31T15:29:10+02:00</time>
      </trkpt>
      <trkpt lat="44.59211" lon="5.37251">
        <ele>1327</ele>
        <time>2020-05-31T15:29:25+02:00</time>
      </trkpt>
      <trkpt lat="44.59206" lon="5.37223">
        <ele>1323</ele>
        <time>2020-05-31T15:29:46+02:00</time>
      </trkpt>
      <trkpt lat="44.59206" lon="5.37214">
        <ele>1323</ele>
        <time>2020-05-31T15:29:57+02:00</time>
      </trkpt>
      <trkpt lat="44.59205" lon="5.37186">
        <ele>1321</ele>
        <time>2020-05-31T15:30:19+02:00</time>
      </trkpt>
      <trkpt lat="44.59206" lon="5.37164">
        <ele>1320</ele>
        <time>2020-05-31T15:30:37+02:00</time>
        <extensions>
          <visugpx:TrkExtension xmlns:visugpx="https://www.visugpx.com/editgpx/">
            <visugpx:node>1</visugpx:node>
            </visugpx:TrkExtension>
        </extensions>
      </trkpt>
      <trkpt lat="44.59193" lon="5.37116">
        <ele>1319.7</ele>
      </trkpt>
      <trkpt lat="44.59183" lon="5.37116">
        <ele>1319</ele>
      </trkpt>
      <trkpt lat="44.59169" lon="5.37116">
        <ele>1318</ele>
      </trkpt>
      <trkpt lat="44.59155" lon="5.37114">
        <ele>1317.1</ele>
      </trkpt>
      <trkpt lat="44.59143" lon="5.37113">
        <ele>1316.3</ele>
      </trkpt>
      <trkpt lat="44.5913" lon="5.3711">
        <ele>1315.5</ele>
      </trkpt>
      <trkpt lat="44.59115" lon="5.37106">
        <ele>1314.8</ele>
      </trkpt>
      <trkpt lat="44.59106" lon="5.37104">
        <ele>1314.4</ele>
      </trkpt>
      <trkpt lat="44.59084" lon="5.371">
        <ele>1312.7</ele>
      </trkpt>
      <trkpt lat="44.59064" lon="5.37098">
        <ele>1312.2</ele>
      </trkpt>
      <trkpt lat="44.5905" lon="5.37097">
        <ele>1312</ele>
      </trkpt>
      <trkpt lat="44.59036" lon="5.37097">
        <ele>1312</ele>
      </trkpt>
      <trkpt lat="44.59027" lon="5.37097">
        <ele>1312</ele>
      </trkpt>
      <trkpt lat="44.59019" lon="5.37097">
        <ele>1311.7</ele>
      </trkpt>
      <trkpt lat="44.59005" lon="5.37095">
        <ele>1311.2</ele>
      </trkpt>
      <trkpt lat="44.58992" lon="5.37093">
        <ele>1310.6</ele>
      </trkpt>
      <trkpt lat="44.58983" lon="5.37093">
        <ele>1310.2</ele>
      </trkpt>
      <trkpt lat="44.58973" lon="5.37091">
        <ele>1309.8</ele>
      </trkpt>
      <trkpt lat="44.58959" lon="5.37085">
        <ele>1309.5</ele>
      </trkpt>
      <trkpt lat="44.58944" lon="5.37078">
        <ele>1309.7</ele>
      </trkpt>
      <trkpt lat="44.58937" lon="5.37075">
        <ele>1309.9</ele>
      </trkpt>
      <trkpt lat="44.58929" lon="5.37074">
        <ele>1309.6</ele>
      </trkpt>
      <trkpt lat="44.58923" lon="5.37074">
        <ele>1309.3</ele>
      </trkpt>
      <trkpt lat="44.58918" lon="5.37074">
        <ele>1309.1</ele>
      </trkpt>
      <trkpt lat="44.58912" lon="5.37074">
        <ele>1308.7</ele>
      </trkpt>
      <trkpt lat="44.58891" lon="5.37065">
        <ele>1307.8</ele>
      </trkpt>
      <trkpt lat="44.58874" lon="5.37059">
        <ele>1306.9</ele>
      </trkpt>
      <trkpt lat="44.58864" lon="5.37056">
        <ele>1306.2</ele>
      </trkpt>
      <trkpt lat="44.58859" lon="5.37055">
        <ele>1305.9</ele>
        <extensions>
          <visugpx:TrkExtension xmlns:visugpx="https://www.visugpx.com/editgpx/">
            <visugpx:node>2</visugpx:node>
            </visugpx:TrkExtension>
        </extensions>
      </trkpt>
      <trkpt lat="44.58855" lon="5.37054">
        <ele>1305.7</ele>
      </trkpt>
      <trkpt lat="44.58845" lon="5.37055">
        <ele>1304.9</ele>
      </trkpt>
      <trkpt lat="44.58844" lon="5.37045">
        <ele>1305.9</ele>
      </trkpt>
      <trkpt lat="44.5884" lon="5.37037">
        <ele>1306.5</ele>
      </trkpt>
      <trkpt lat="44.5883" lon="5.37023">
        <ele>1306.9</ele>
      </trkpt>
      <trkpt lat="44.58828" lon="5.37018">
        <ele>1306.9</ele>
      </trkpt>
      <trkpt lat="44.58827" lon="5.37009">
        <ele>1307.4</ele>
      </trkpt>
      <trkpt lat="44.58827" lon="5.36993">
        <ele>1308.5</ele>
      </trkpt>
      <trkpt lat="44.58826" lon="5.36974">
        <ele>1309.6</ele>
      </trkpt>
      <trkpt lat="44.58825" lon="5.36958">
        <ele>1310</ele>
      </trkpt>
      <trkpt lat="44.58825" lon="5.36952">
        <ele>1310.2</ele>
      </trkpt>
      <trkpt lat="44.58825" lon="5.36949">
        <ele>1310.3</ele>
      </trkpt>
      <trkpt lat="44.58825" lon="5.36942">
        <ele>1310.7</ele>
      </trkpt>
      <trkpt lat="44.58824" lon="5.36937">
        <ele>1310.9</ele>
      </trkpt>
      <trkpt lat="44.58823" lon="5.3693">
        <ele>1311.2</ele>
      </trkpt>
      <trkpt lat="44.58823" lon="5.36922">
        <ele>1311.8</ele>
      </trkpt>
      <trkpt lat="44.58823" lon="5.36917">
        <ele>1312.2</ele>
      </trkpt>
      <trkpt lat="44.58825" lon="5.36914">
        <ele>1312.7</ele>
      </trkpt>
      <trkpt lat="44.58828" lon="5.36908">
        <ele>1313.7</ele>
      </trkpt>
      <trkpt lat="44.58841" lon="5.36892">
        <ele>1316.1</ele>
      </trkpt>
      <trkpt lat="44.58847" lon="5.36885">
        <ele>1317</ele>
      </trkpt>
      <trkpt lat="44.58849" lon="5.36874">
        <ele>1318.3</ele>
      </trkpt>
      <trkpt lat="44.58846" lon="5.36866">
        <ele>1319.4</ele>
      </trkpt>
      <trkpt lat="44.58843" lon="5.36852">
        <ele>1321.8</ele>
      </trkpt>
      <trkpt lat="44.58843" lon="5.36838">
        <ele>1324.2</ele>
      </trkpt>
      <trkpt lat="44.58839" lon="5.36826">
        <ele>1326.9</ele>
      </trkpt>
      <trkpt lat="44.58834" lon="5.3681">
        <ele>1330.9</ele>
      </trkpt>
      <trkpt lat="44.58833" lon="5.36801">
        <ele>1332.7</ele>
      </trkpt>
      <trkpt lat="44.58831" lon="5.36775">
        <ele>1336.6</ele>
      </trkpt>
      <trkpt lat="44.58832" lon="5.36744">
        <ele>1342.1</ele>
      </trkpt>
      <trkpt lat="44.58825" lon="5.36706">
        <ele>1347.7</ele>
      </trkpt>
      <trkpt lat="44.58823" lon="5.36652">
        <ele>1352.5</ele>
      </trkpt>
      <trkpt lat="44.58832" lon="5.36592">
        <ele>1358.3</ele>
      </trkpt>
      <trkpt lat="44.58831" lon="5.36575">
        <ele>1359.8</ele>
      </trkpt>
      <trkpt lat="44.5883" lon="5.36557">
        <ele>1361.7</ele>
      </trkpt>
      <trkpt lat="44.58832" lon="5.36538">
        <ele>1364.4</ele>
      </trkpt>
      <trkpt lat="44.58837" lon="5.36505">
        <ele>1370.1</ele>
      </trkpt>
      <trkpt lat="44.58843" lon="5.36479">
        <ele>1374.8</ele>
      </trkpt>
      <trkpt lat="44.58845" lon="5.3646">
        <ele>1377.8</ele>
      </trkpt>
      <trkpt lat="44.58847" lon="5.36446">
        <ele>1379.8</ele>
      </trkpt>
      <trkpt lat="44.58852" lon="5.36433">
        <ele>1381.9</ele>
      </trkpt>
      <trkpt lat="44.58856" lon="5.36422">
        <ele>1383.9</ele>
      </trkpt>
      <trkpt lat="44.58858" lon="5.36412">
        <ele>1385.6</ele>
      </trkpt>
      <trkpt lat="44.58857" lon="5.36402">
        <ele>1387</ele>
      </trkpt>
      <trkpt lat="44.58853" lon="5.3639">
        <ele>1388.5</ele>
      </trkpt>
      <trkpt lat="44.58848" lon="5.36379">
        <ele>1390.3</ele>
      </trkpt>
      <trkpt lat="44.5884" lon="5.36369">
        <ele>1391.8</ele>
      </trkpt>
      <trkpt lat="44.58826" lon="5.36358">
        <ele>1393</ele>
      </trkpt>
      <trkpt lat="44.58817" lon="5.36348">
        <ele>1394.2</ele>
      </trkpt>
      <trkpt lat="44.58814" lon="5.36341">
        <ele>1395.2</ele>
      </trkpt>
      <trkpt lat="44.58811" lon="5.36333">
        <ele>1396.4</ele>
      </trkpt>
      <trkpt lat="44.5881" lon="5.36321">
        <ele>1398.5</ele>
      </trkpt>
      <trkpt lat="44.58808" lon="5.36314">
        <ele>1399.6</ele>
      </trkpt>
      <trkpt lat="44.58804" lon="5.36304">
        <ele>1401.1</ele>
      </trkpt>
      <trkpt lat="44.5879" lon="5.36281">
        <ele>1404.2</ele>
      </trkpt>
      <trkpt lat="44.58782" lon="5.36266">
        <ele>1406.8</ele>
      </trkpt>
      <trkpt lat="44.58775" lon="5.36246">
        <ele>1410.4</ele>
      </trkpt>
      <trkpt lat="44.58766" lon="5.36228">
        <ele>1412.7</ele>
      </trkpt>
      <trkpt lat="44.58745" lon="5.36191">
        <ele>1418</ele>
      </trkpt>
      <trkpt lat="44.58727" lon="5.36157">
        <ele>1421.5</ele>
      </trkpt>
      <trkpt lat="44.58724" lon="5.36148">
        <ele>1423.2</ele>
      </trkpt>
      <trkpt lat="44.58722" lon="5.36138">
        <ele>1425.2</ele>
      </trkpt>
      <trkpt lat="44.58715" lon="5.36094">
        <ele>1433.2</ele>
      </trkpt>
      <trkpt lat="44.58706" lon="5.36029">
        <ele>1443.5</ele>
      </trkpt>
      <trkpt lat="44.58699" lon="5.35981">
        <ele>1448.7</ele>
      </trkpt>
      <trkpt lat="44.58693" lon="5.35931">
        <ele>1452.6</ele>
      </trkpt>
      <trkpt lat="44.58688" lon="5.35889">
        <ele>1454.1</ele>
      </trkpt>
      <trkpt lat="44.58684" lon="5.35842">
        <ele>1454.3</ele>
      </trkpt>
      <trkpt lat="44.5868" lon="5.35803">
        <ele>1453.9</ele>
      </trkpt>
      <trkpt lat="44.58675" lon="5.35763">
        <ele>1452.9</ele>
      </trkpt>
      <trkpt lat="44.58671" lon="5.3573">
        <ele>1452.9</ele>
      </trkpt>
      <trkpt lat="44.58667" lon="5.35698">
        <ele>1454.7</ele>
      </trkpt>
      <trkpt lat="44.58661" lon="5.35639">
        <ele>1457.4</ele>
      </trkpt>
      <trkpt lat="44.58655" lon="5.35581">
        <ele>1459.7</ele>
      </trkpt>
      <trkpt lat="44.58651" lon="5.35538">
        <ele>1462.1</ele>
      </trkpt>
      <trkpt lat="44.58648" lon="5.35503">
        <ele>1465.3</ele>
      </trkpt>
      <trkpt lat="44.58648" lon="5.35477">
        <ele>1467.3</ele>
      </trkpt>
      <trkpt lat="44.58648" lon="5.35455">
        <ele>1469.5</ele>
      </trkpt>
      <trkpt lat="44.58649" lon="5.35432">
        <ele>1472.2</ele>
      </trkpt>
      <trkpt lat="44.58652" lon="5.35403">
        <ele>1476.4</ele>
      </trkpt>
      <trkpt lat="44.58655" lon="5.35379">
        <ele>1480.4</ele>
      </trkpt>
      <trkpt lat="44.58659" lon="5.35348">
        <ele>1486.3</ele>
      </trkpt>
      <trkpt lat="44.58664" lon="5.35305">
        <ele>1494.7</ele>
      </trkpt>
      <trkpt lat="44.58668" lon="5.35268">
        <ele>1502.2</ele>
      </trkpt>
      <trkpt lat="44.58671" lon="5.35235">
        <ele>1509.6</ele>
      </trkpt>
      <trkpt lat="44.58677" lon="5.35185">
        <ele>1520.4</ele>
      </trkpt>
      <trkpt lat="44.58682" lon="5.35132">
        <ele>1531.1</ele>
      </trkpt>
      <trkpt lat="44.58687" lon="5.35097">
        <ele>1536.7</ele>
      </trkpt>
      <trkpt lat="44.5869" lon="5.35074">
        <ele>1540.2</ele>
      </trkpt>
      <trkpt lat="44.58693" lon="5.35056">
        <ele>1542.6</ele>
      </trkpt>
      <trkpt lat="44.58697" lon="5.35038">
        <ele>1543.2</ele>
      </trkpt>
      <trkpt lat="44.58704" lon="5.3501">
        <ele>1545.1</ele>
      </trkpt>
      <trkpt lat="44.58709" lon="5.34994">
        <ele>1546.7</ele>
      </trkpt>
      <trkpt lat="44.5871" lon="5.34987">
        <ele>1547.1</ele>
      </trkpt>
      <trkpt lat="44.58711" lon="5.3498">
        <ele>1547.5</ele>
      </trkpt>
      <trkpt lat="44.58711" lon="5.34974">
        <ele>1547.7</ele>
      </trkpt>
      <trkpt lat="44.58711" lon="5.34968">
        <ele>1547.8</ele>
      </trkpt>
      <trkpt lat="44.58713" lon="5.34962">
        <ele>1548.5</ele>
      </trkpt>
      <trkpt lat="44.58716" lon="5.34954">
        <ele>1549.4</ele>
      </trkpt>
      <trkpt lat="44.5872" lon="5.34934">
        <ele>1550.8</ele>
      </trkpt>
      <trkpt lat="44.58724" lon="5.34912">
        <ele>1552.4</ele>
      </trkpt>
      <trkpt lat="44.58728" lon="5.3489">
        <ele>1553.8</ele>
      </trkpt>
      <trkpt lat="44.58732" lon="5.34864">
        <ele>1556.2</ele>
      </trkpt>
      <trkpt lat="44.58737" lon="5.34844">
        <ele>1558.4</ele>
      </trkpt>
      <trkpt lat="44.58741" lon="5.34819">
        <ele>1561.1</ele>
      </trkpt>
      <trkpt lat="44.58745" lon="5.34788">
        <ele>1564.4</ele>
      </trkpt>
      <trkpt lat="44.58748" lon="5.34756">
        <ele>1567.2</ele>
      </trkpt>
      <trkpt lat="44.58751" lon="5.34731">
        <ele>1569.4</ele>
      </trkpt>
      <trkpt lat="44.58755" lon="5.347">
        <ele>1571.8</ele>
      </trkpt>
      <trkpt lat="44.58758" lon="5.34665">
        <ele>1573.7</ele>
      </trkpt>
      <trkpt lat="44.58762" lon="5.34628">
        <ele>1577.6</ele>
      </trkpt>
      <trkpt lat="44.58767" lon="5.34587">
        <ele>1583.1</ele>
      </trkpt>
      <trkpt lat="44.58769" lon="5.34558">
        <ele>1587.4</ele>
      </trkpt>
      <trkpt lat="44.58772" lon="5.3454">
        <ele>1590.7</ele>
      </trkpt>
      <trkpt lat="44.58775" lon="5.34517">
        <ele>1595</ele>
      </trkpt>
      <trkpt lat="44.58776" lon="5.34496">
        <ele>1598.3</ele>
      </trkpt>
      <trkpt lat="44.58779" lon="5.34479">
        <ele>1601.1</ele>
      </trkpt>
      <trkpt lat="44.5878" lon="5.34464">
        <ele>1603.6</ele>
      </trkpt>
      <trkpt lat="44.58782" lon="5.34448">
        <ele>1606.4</ele>
        <extensions>
          <visugpx:TrkExtension xmlns:visugpx="https://www.visugpx.com/editgpx/">
            <visugpx:node>3</visugpx:node>
            </visugpx:TrkExtension>
        </extensions>
      </trkpt>
      <trkpt lat="44.58804" lon="5.34451">
        <ele>1606.3</ele>
      </trkpt>
      <trkpt lat="44.58825" lon="5.34453">
        <ele>1605.4</ele>
      </trkpt>
      <trkpt lat="44.58853" lon="5.34447">
        <ele>1603.6</ele>
      </trkpt>
      <trkpt lat="44.58882" lon="5.34441">
        <ele>1598.4</ele>
      </trkpt>
      <trkpt lat="44.58911" lon="5.34456">
        <ele>1590.7</ele>
      </trkpt>
      <trkpt lat="44.58938" lon="5.3448">
        <ele>1579.8</ele>
      </trkpt>
      <trkpt lat="44.58971" lon="5.34492">
        <ele>1567.6</ele>
      </trkpt>
      <trkpt lat="44.58992" lon="5.34508">
        <ele>1560.9</ele>
      </trkpt>
      <trkpt lat="44.59021" lon="5.34524">
        <ele>1552.5</ele>
      </trkpt>
      <trkpt lat="44.59057" lon="5.34527">
        <ele>1543.5</ele>
      </trkpt>
      <trkpt lat="44.59092" lon="5.34518">
        <ele>1533.8</ele>
      </trkpt>
      <trkpt lat="44.59135" lon="5.34495">
        <ele>1517.6</ele>
      </trkpt>
      <trkpt lat="44.59164" lon="5.34505">
        <ele>1510.7</ele>
      </trkpt>
      <trkpt lat="44.59195" lon="5.34499">
        <ele>1498.4</ele>
      </trkpt>
      <trkpt lat="44.59217" lon="5.34504">
        <ele>1489.8</ele>
      </trkpt>
      <trkpt lat="44.59236" lon="5.34512">
        <ele>1482.8</ele>
      </trkpt>
      <trkpt lat="44.59265" lon="5.34511">
        <ele>1471</ele>
      </trkpt>
      <trkpt lat="44.59297" lon="5.34522">
        <ele>1460.2</ele>
      </trkpt>
      <trkpt lat="44.59351" lon="5.34595">
        <ele>1443.5</ele>
      </trkpt>
      <trkpt lat="44.59383" lon="5.34644">
        <ele>1435.9</ele>
      </trkpt>
      <trkpt lat="44.59407" lon="5.34719">
        <ele>1428.8</ele>
      </trkpt>
      <trkpt lat="44.59414" lon="5.34767">
        <ele>1425.2</ele>
      </trkpt>
      <trkpt lat="44.59422" lon="5.34819">
        <ele>1423.5</ele>
      </trkpt>
      <trkpt lat="44.59427" lon="5.34851">
        <ele>1424.3</ele>
      </trkpt>
      <trkpt lat="44.59441" lon="5.34891">
        <ele>1423.6</ele>
      </trkpt>
      <trkpt lat="44.59467" lon="5.34939">
        <ele>1421.6</ele>
      </trkpt>
      <trkpt lat="44.59491" lon="5.35">
        <ele>1414.6</ele>
      </trkpt>
      <trkpt lat="44.59506" lon="5.35052">
        <ele>1406.1</ele>
      </trkpt>
      <trkpt lat="44.59524" lon="5.35069">
        <ele>1402</ele>
      </trkpt>
      <trkpt lat="44.59557" lon="5.35141">
        <ele>1389.8</ele>
      </trkpt>
      <trkpt lat="44.59581" lon="5.35176">
        <ele>1384.2</ele>
      </trkpt>
      <trkpt lat="44.59605" lon="5.35205">
        <ele>1378.5</ele>
      </trkpt>
      <trkpt lat="44.59646" lon="5.35243">
        <ele>1368.5</ele>
      </trkpt>
      <trkpt lat="44.59677" lon="5.35266">
        <ele>1360.8</ele>
      </trkpt>
      <trkpt lat="44.59685" lon="5.35263">
        <ele>1359.5</ele>
      </trkpt>
      <trkpt lat="44.59687" lon="5.35268">
        <ele>1358.6</ele>
      </trkpt>
      <trkpt lat="44.59691" lon="5.3527">
        <ele>1357.5</ele>
      </trkpt>
      <trkpt lat="44.59697" lon="5.35269">
        <ele>1356.5</ele>
      </trkpt>
      <trkpt lat="44.59703" lon="5.35267">
        <ele>1355.7</ele>
      </trkpt>
      <trkpt lat="44.59717" lon="5.35264">
        <ele>1353.8</ele>
      </trkpt>
      <trkpt lat="44.59736" lon="5.35263">
        <ele>1350.7</ele>
      </trkpt>
      <trkpt lat="44.59766" lon="5.35261">
        <ele>1346</ele>
      </trkpt>
      <trkpt lat="44.59795" lon="5.35255">
        <ele>1342</ele>
      </trkpt>
      <trkpt lat="44.59817" lon="5.35251">
        <ele>1338.7</ele>
      </trkpt>
      <trkpt lat="44.59831" lon="5.35247">
        <ele>1337.2</ele>
      </trkpt>
      <trkpt lat="44.59841" lon="5.35244">
        <ele>1336.4</ele>
      </trkpt>
      <trkpt lat="44.59851" lon="5.35243">
        <ele>1335.2</ele>
      </trkpt>
      <trkpt lat="44.59863" lon="5.35249">
        <ele>1332.1</ele>
      </trkpt>
      <trkpt lat="44.59878" lon="5.35255">
        <ele>1329.1</ele>
      </trkpt>
      <trkpt lat="44.59908" lon="5.35262">
        <ele>1325.8</ele>
      </trkpt>
      <trkpt lat="44.59942" lon="5.35273">
        <ele>1323.3</ele>
      </trkpt>
      <trkpt lat="44.59951" lon="5.35273">
        <ele>1323.7</ele>
      </trkpt>
      <trkpt lat="44.59956" lon="5.35276">
        <ele>1323</ele>
      </trkpt>
      <trkpt lat="44.59957" lon="5.35285">
        <ele>1320.4</ele>
      </trkpt>
      <trkpt lat="44.59954" lon="5.35291">
        <ele>1318.5</ele>
      </trkpt>
      <trkpt lat="44.59945" lon="5.35292">
        <ele>1317.9</ele>
      </trkpt>
      <trkpt lat="44.59921" lon="5.3531">
        <ele>1314</ele>
      </trkpt>
      <trkpt lat="44.59899" lon="5.35334">
        <ele>1311.2</ele>
      </trkpt>
      <trkpt lat="44.59888" lon="5.3535">
        <ele>1309.1</ele>
      </trkpt>
      <trkpt lat="44.59881" lon="5.35357">
        <ele>1308.6</ele>
      </trkpt>
      <trkpt lat="44.59878" lon="5.35365">
        <ele>1307.6</ele>
      </trkpt>
      <trkpt lat="44.59879" lon="5.35372">
        <ele>1306.5</ele>
      </trkpt>
      <trkpt lat="44.59881" lon="5.35376">
        <ele>1305.7</ele>
      </trkpt>
      <trkpt lat="44.59883" lon="5.35377">
        <ele>1305.3</ele>
      </trkpt>
      <trkpt lat="44.5989" lon="5.35378">
        <ele>1304.5</ele>
      </trkpt>
      <trkpt lat="44.59915" lon="5.35383">
        <ele>1302</ele>
      </trkpt>
      <trkpt lat="44.59947" lon="5.35392">
        <ele>1298.5</ele>
      </trkpt>
      <trkpt lat="44.59978" lon="5.35399">
        <ele>1295.6</ele>
      </trkpt>
      <trkpt lat="44.60024" lon="5.3541">
        <ele>1292.5</ele>
      </trkpt>
      <trkpt lat="44.60038" lon="5.35415">
        <ele>1291.8</ele>
      </trkpt>
      <trkpt lat="44.6005" lon="5.35422">
        <ele>1290.9</ele>
      </trkpt>
      <trkpt lat="44.60059" lon="5.35429">
        <ele>1289.7</ele>
      </trkpt>
      <trkpt lat="44.60069" lon="5.35436">
        <ele>1288</ele>
      </trkpt>
      <trkpt lat="44.60082" lon="5.3544">
        <ele>1286.8</ele>
      </trkpt>
      <trkpt lat="44.60094" lon="5.3544">
        <ele>1286.2</ele>
      </trkpt>
      <trkpt lat="44.6011" lon="5.35433">
        <ele>1285.9</ele>
      </trkpt>
      <trkpt lat="44.60126" lon="5.35423">
        <ele>1284.6</ele>
      </trkpt>
      <trkpt lat="44.6013" lon="5.35422">
        <ele>1284.2</ele>
      </trkpt>
      <trkpt lat="44.6013" lon="5.35433">
        <ele>1283.9</ele>
      </trkpt>
      <trkpt lat="44.6013" lon="5.35446">
        <ele>1283.7</ele>
        <extensions>
          <visugpx:TrkExtension xmlns:visugpx="https://www.visugpx.com/editgpx/">
            <visugpx:node>4</visugpx:node>
            </visugpx:TrkExtension>
        </extensions>
      </trkpt>
      <trkpt lat="44.6013" lon="5.35453">
        <ele>1283.8</ele>
      </trkpt>
      <trkpt lat="44.60127" lon="5.35491">
        <ele>1284.4</ele>
      </trkpt>
      <trkpt lat="44.60124" lon="5.35513">
        <ele>1285</ele>
      </trkpt>
      <trkpt lat="44.60114" lon="5.35562">
        <ele>1287.1</ele>
      </trkpt>
      <trkpt lat="44.60106" lon="5.35608">
        <ele>1288.2</ele>
      </trkpt>
      <trkpt lat="44.60105" lon="5.35627">
        <ele>1288.8</ele>
      </trkpt>
      <trkpt lat="44.60107" lon="5.35642">
        <ele>1289.3</ele>
      </trkpt>
      <trkpt lat="44.60109" lon="5.35652">
        <ele>1289.5</ele>
      </trkpt>
      <trkpt lat="44.60119" lon="5.35721">
        <ele>1290.7</ele>
      </trkpt>
      <trkpt lat="44.60119" lon="5.35752">
        <ele>1291.8</ele>
      </trkpt>
      <trkpt lat="44.60118" lon="5.35774">
        <ele>1292.2</ele>
      </trkpt>
      <trkpt lat="44.60116" lon="5.35795">
        <ele>1292.7</ele>
      </trkpt>
      <trkpt lat="44.60114" lon="5.35813">
        <ele>1293.2</ele>
      </trkpt>
      <trkpt lat="44.6011" lon="5.35826">
        <ele>1293.8</ele>
      </trkpt>
      <trkpt lat="44.60109" lon="5.35837">
        <ele>1294.1</ele>
      </trkpt>
      <trkpt lat="44.60108" lon="5.35852">
        <ele>1294.2</ele>
      </trkpt>
      <trkpt lat="44.60108" lon="5.3587">
        <ele>1294</ele>
      </trkpt>
      <trkpt lat="44.60107" lon="5.35893">
        <ele>1293.5</ele>
      </trkpt>
      <trkpt lat="44.60086" lon="5.36051">
        <ele>1294.7</ele>
      </trkpt>
      <trkpt lat="44.60082" lon="5.36084">
        <ele>1295.3</ele>
      </trkpt>
      <trkpt lat="44.60082" lon="5.36105">
        <ele>1295.3</ele>
      </trkpt>
      <trkpt lat="44.60077" lon="5.36133">
        <ele>1296.2</ele>
      </trkpt>
      <trkpt lat="44.60069" lon="5.36151">
        <ele>1296.7</ele>
      </trkpt>
      <trkpt lat="44.60035" lon="5.36208">
        <ele>1298.6</ele>
        <extensions>
          <visugpx:TrkExtension xmlns:visugpx="https://www.visugpx.com/editgpx/">
            <visugpx:node>5</visugpx:node>
            </visugpx:TrkExtension>
        </extensions>
      </trkpt>
      <trkpt lat="44.60052" lon="5.36182">
        <ele>1296</ele>
        <time>2020-05-31T15:54:40+02:00</time>
      </trkpt>
      <trkpt lat="44.60083" lon="5.36158">
        <ele>1291</ele>
        <time>2020-05-31T15:55:16+02:00</time>
      </trkpt>
      <trkpt lat="44.60113" lon="5.36138">
        <ele>1288</ele>
        <time>2020-05-31T15:55:55+02:00</time>
      </trkpt>
      <trkpt lat="44.60129" lon="5.36135">
        <ele>1287</ele>
        <time>2020-05-31T15:56:11+02:00</time>
      </trkpt>
      <trkpt lat="44.60149" lon="5.36134">
        <ele>1286</ele>
        <time>2020-05-31T15:56:29+02:00</time>
      </trkpt>
      <trkpt lat="44.60163" lon="5.36157">
        <ele>1285</ele>
        <time>2020-05-31T15:56:49+02:00</time>
      </trkpt>
      <trkpt lat="44.60181" lon="5.36161">
        <ele>1285</ele>
        <time>2020-05-31T15:57:08+02:00</time>
      </trkpt>
      <trkpt lat="44.60201" lon="5.36169">
        <ele>1284</ele>
        <time>2020-05-31T15:57:28+02:00</time>
      </trkpt>
      <trkpt lat="44.60214" lon="5.36182">
        <ele>1283</ele>
        <time>2020-05-31T15:57:43+02:00</time>
      </trkpt>
      <trkpt lat="44.60224" lon="5.36203">
        <ele>1282</ele>
        <time>2020-05-31T15:57:59+02:00</time>
      </trkpt>
      <trkpt lat="44.6023" lon="5.36216">
        <ele>1283</ele>
        <time>2020-05-31T15:58:09+02:00</time>
      </trkpt>
      <trkpt lat="44.60237" lon="5.36231">
        <ele>1283</ele>
        <time>2020-05-31T15:58:21+02:00</time>
      </trkpt>
      <trkpt lat="44.60242" lon="5.36262">
        <ele>1284</ele>
        <time>2020-05-31T15:58:39+02:00</time>
      </trkpt>
      <trkpt lat="44.60254" lon="5.36293">
        <ele>1285</ele>
        <time>2020-05-31T15:59:13+02:00</time>
      </trkpt>
      <trkpt lat="44.60268" lon="5.36331">
        <ele>1285</ele>
        <time>2020-05-31T15:59:40+02:00</time>
      </trkpt>
      <trkpt lat="44.60283" lon="5.36366">
        <ele>1285</ele>
        <time>2020-05-31T16:00:00+02:00</time>
      </trkpt>
      <trkpt lat="44.60305" lon="5.364">
        <ele>1283</ele>
        <time>2020-05-31T16:00:29+02:00</time>
      </trkpt>
      <trkpt lat="44.60318" lon="5.36421">
        <ele>1284</ele>
        <time>2020-05-31T16:00:48+02:00</time>
      </trkpt>
      <trkpt lat="44.60333" lon="5.36446">
        <ele>1285</ele>
        <time>2020-05-31T16:01:10+02:00</time>
      </trkpt>
      <trkpt lat="44.60346" lon="5.36476">
        <ele>1289</ele>
        <time>2020-05-31T16:01:37+02:00</time>
      </trkpt>
      <trkpt lat="44.60366" lon="5.3649">
        <ele>1289</ele>
        <time>2020-05-31T16:02:48+02:00</time>
      </trkpt>
      <trkpt lat="44.60384" lon="5.36498">
        <ele>1286</ele>
        <time>2020-05-31T16:03:07+02:00</time>
      </trkpt>
      <trkpt lat="44.60404" lon="5.36513">
        <ele>1284</ele>
        <time>2020-05-31T16:03:31+02:00</time>
      </trkpt>
      <trkpt lat="44.60431" lon="5.3653">
        <ele>1281</ele>
        <time>2020-05-31T16:03:57+02:00</time>
      </trkpt>
      <trkpt lat="44.60457" lon="5.36548">
        <ele>1278</ele>
        <time>2020-05-31T16:04:23+02:00</time>
      </trkpt>
      <trkpt lat="44.60477" lon="5.3656">
        <ele>1274</ele>
        <time>2020-05-31T16:04:48+02:00</time>
      </trkpt>
      <trkpt lat="44.60502" lon="5.36565">
        <ele>1271</ele>
        <time>2020-05-31T16:05:11+02:00</time>
      </trkpt>
      <trkpt lat="44.60517" lon="5.36563">
        <ele>1270</ele>
        <time>2020-05-31T16:05:26+02:00</time>
      </trkpt>
      <trkpt lat="44.60532" lon="5.36559">
        <ele>1270</ele>
        <time>2020-05-31T16:05:43+02:00</time>
      </trkpt>
      <trkpt lat="44.60551" lon="5.36555">
        <ele>1267</ele>
        <time>2020-05-31T16:06:01+02:00</time>
      </trkpt>
      <trkpt lat="44.60563" lon="5.36555">
        <ele>1266</ele>
        <time>2020-05-31T16:06:35+02:00</time>
      </trkpt>
      <trkpt lat="44.60577" lon="5.36551">
        <ele>1263</ele>
        <time>2020-05-31T16:06:53+02:00</time>
      </trkpt>
      <trkpt lat="44.60596" lon="5.36552">
        <ele>1261</ele>
        <time>2020-05-31T16:07:23+02:00</time>
      </trkpt>
      <trkpt lat="44.6061" lon="5.36549">
        <ele>1260</ele>
        <time>2020-05-31T16:07:46+02:00</time>
      </trkpt>
      <trkpt lat="44.6063" lon="5.36546">
        <ele>1260</ele>
        <time>2020-05-31T16:08:04+02:00</time>
      </trkpt>
      <trkpt lat="44.60648" lon="5.36543">
        <ele>1260</ele>
        <time>2020-05-31T16:08:21+02:00</time>
      </trkpt>
      <trkpt lat="44.60665" lon="5.36537">
        <ele>1260</ele>
        <time>2020-05-31T16:08:39+02:00</time>
      </trkpt>
      <trkpt lat="44.60679" lon="5.3653">
        <ele>1258</ele>
        <time>2020-05-31T16:08:54+02:00</time>
      </trkpt>
      <trkpt lat="44.60694" lon="5.36521">
        <ele>1256</ele>
        <time>2020-05-31T16:09:11+02:00</time>
      </trkpt>
      <trkpt lat="44.60714" lon="5.36512">
        <ele>1253</ele>
        <time>2020-05-31T16:09:32+02:00</time>
      </trkpt>
      <trkpt lat="44.6073" lon="5.36506">
        <ele>1250</ele>
        <time>2020-05-31T16:09:49+02:00</time>
      </trkpt>
      <trkpt lat="44.60747" lon="5.36507">
        <ele>1248</ele>
        <time>2020-05-31T16:10:06+02:00</time>
      </trkpt>
      <trkpt lat="44.60765" lon="5.3651">
        <ele>1244</ele>
        <time>2020-05-31T16:10:24+02:00</time>
      </trkpt>
      <trkpt lat="44.6078" lon="5.36526">
        <ele>1242</ele>
        <time>2020-05-31T16:10:42+02:00</time>
      </trkpt>
      <trkpt lat="44.60791" lon="5.36552">
        <ele>1238</ele>
        <time>2020-05-31T16:11:16+02:00</time>
      </trkpt>
      <trkpt lat="44.60793" lon="5.36584">
        <ele>1235</ele>
        <time>2020-05-31T16:11:34+02:00</time>
      </trkpt>
      <trkpt lat="44.60812" lon="5.36595">
        <ele>1230</ele>
        <time>2020-05-31T16:12:11+02:00</time>
      </trkpt>
      <trkpt lat="44.6083" lon="5.36576">
        <ele>1229</ele>
        <time>2020-05-31T16:14:26+02:00</time>
      </trkpt>
      <trkpt lat="44.60839" lon="5.3655">
        <ele>1228</ele>
        <time>2020-05-31T16:14:38+02:00</time>
      </trkpt>
      <trkpt lat="44.60844" lon="5.36522">
        <ele>1227</ele>
        <time>2020-05-31T16:14:49+02:00</time>
      </trkpt>
      <trkpt lat="44.60848" lon="5.36488">
        <ele>1223</ele>
      </trkpt>
      <trkpt lat="44.60876" lon="5.36518">
        <ele>1218</ele>
        <time>2020-05-31T16:15:51+02:00</time>
      </trkpt>
      <trkpt lat="44.60895" lon="5.36543">
        <ele>1214</ele>
        <time>2020-05-31T16:16:06+02:00</time>
      </trkpt>
      <trkpt lat="44.60918" lon="5.36549">
        <ele>1209</ele>
        <time>2020-05-31T16:16:36+02:00</time>
      </trkpt>
      <trkpt lat="44.60939" lon="5.36549">
        <ele>1203</ele>
        <time>2020-05-31T16:17:07+02:00</time>
      </trkpt>
      <trkpt lat="44.60952" lon="5.36542">
        <ele>1200</ele>
        <time>2020-05-31T16:17:39+02:00</time>
      </trkpt>
      <trkpt lat="44.60971" lon="5.36535">
        <ele>1196</ele>
        <time>2020-05-31T16:17:55+02:00</time>
      </trkpt>
      <trkpt lat="44.60992" lon="5.36531">
        <ele>1192</ele>
        <time>2020-05-31T16:20:43+02:00</time>
      </trkpt>
      <trkpt lat="44.61011" lon="5.36511">
        <ele>1187</ele>
        <time>2020-05-31T16:21:03+02:00</time>
      </trkpt>
      <trkpt lat="44.61026" lon="5.36501">
        <ele>1183</ele>
        <time>2020-05-31T16:24:49+02:00</time>
      </trkpt>
      <trkpt lat="44.61041" lon="5.3649">
        <ele>1179</ele>
        <time>2020-05-31T16:25:12+02:00</time>
      </trkpt>
      <trkpt lat="44.61058" lon="5.36477">
        <ele>1175</ele>
        <time>2020-05-31T16:25:41+02:00</time>
      </trkpt>
      <trkpt lat="44.61073" lon="5.3647">
        <ele>1171</ele>
        <time>2020-05-31T16:26:13+02:00</time>
      </trkpt>
      <trkpt lat="44.61087" lon="5.36458">
        <ele>1165</ele>
        <time>2020-05-31T16:26:53+02:00</time>
      </trkpt>
      <trkpt lat="44.61112" lon="5.36449">
        <ele>1158</ele>
        <time>2020-05-31T16:27:36+02:00</time>
      </trkpt>
      <trkpt lat="44.61136" lon="5.36436">
        <ele>1152</ele>
        <time>2020-05-31T16:28:19+02:00</time>
      </trkpt>
      <trkpt lat="44.61152" lon="5.36425">
        <ele>1147</ele>
        <time>2020-05-31T16:28:37+02:00</time>
      </trkpt>
      <trkpt lat="44.61171" lon="5.3642">
        <ele>1142</ele>
        <time>2020-05-31T16:28:59+02:00</time>
      </trkpt>
      <trkpt lat="44.61182" lon="5.36416">
        <ele>1139</ele>
        <time>2020-05-31T16:29:23+02:00</time>
      </trkpt>
      <trkpt lat="44.61195" lon="5.3641">
        <ele>1135</ele>
        <time>2020-05-31T16:29:41+02:00</time>
      </trkpt>
      <trkpt lat="44.61212" lon="5.36404">
        <ele>1130</ele>
        <time>2020-05-31T16:30:00+02:00</time>
      </trkpt>
      <trkpt lat="44.61223" lon="5.36399">
        <ele>1127</ele>
        <time>2020-05-31T16:30:20+02:00</time>
      </trkpt>
      <trkpt lat="44.61244" lon="5.3639">
        <ele>1124</ele>
        <time>2020-05-31T16:30:40+02:00</time>
      </trkpt>
      <trkpt lat="44.61258" lon="5.36383">
        <ele>1120</ele>
        <time>2020-05-31T16:30:59+02:00</time>
      </trkpt>
      <trkpt lat="44.61271" lon="5.36375">
        <ele>1117</ele>
        <time>2020-05-31T16:31:18+02:00</time>
      </trkpt>
      <trkpt lat="44.61283" lon="5.3636">
        <ele>1114</ele>
        <time>2020-05-31T16:32:06+02:00</time>
      </trkpt>
      <trkpt lat="44.613" lon="5.3635">
        <ele>1110</ele>
        <time>2020-05-31T16:32:27+02:00</time>
      </trkpt>
      <trkpt lat="44.61314" lon="5.36335">
        <ele>1107</ele>
        <time>2020-05-31T16:32:46+02:00</time>
      </trkpt>
      <trkpt lat="44.61328" lon="5.36321">
        <ele>1105</ele>
        <time>2020-05-31T16:33:06+02:00</time>
      </trkpt>
      <trkpt lat="44.61334" lon="5.36311">
        <ele>1104</ele>
        <time>2020-05-31T16:33:22+02:00</time>
      </trkpt>
      <trkpt lat="44.61347" lon="5.36301">
        <ele>1102</ele>
        <time>2020-05-31T16:33:42+02:00</time>
      </trkpt>
      <trkpt lat="44.61359" lon="5.3629">
        <ele>1100</ele>
        <time>2020-05-31T16:34:28+02:00</time>
      </trkpt>
      <trkpt lat="44.61372" lon="5.36279">
        <ele>1099</ele>
        <time>2020-05-31T16:34:48+02:00</time>
      </trkpt>
      <trkpt lat="44.61389" lon="5.36268">
        <ele>1099</ele>
        <time>2020-05-31T16:35:10+02:00</time>
      </trkpt>
      <trkpt lat="44.61402" lon="5.3626">
        <ele>1099</ele>
        <time>2020-05-31T16:36:25+02:00</time>
      </trkpt>
      <trkpt lat="44.61419" lon="5.36253">
        <ele>1101</ele>
        <time>2020-05-31T16:36:43+02:00</time>
      </trkpt>
      <trkpt lat="44.61441" lon="5.36251">
        <ele>1101</ele>
        <time>2020-05-31T16:37:12+02:00</time>
      </trkpt>
      <trkpt lat="44.61464" lon="5.36251">
        <ele>1101</ele>
        <time>2020-05-31T16:37:58+02:00</time>
      </trkpt>
      <trkpt lat="44.6149" lon="5.36263">
        <ele>1100</ele>
        <time>2020-05-31T16:38:31+02:00</time>
      </trkpt>
      <trkpt lat="44.61511" lon="5.36269">
        <ele>1099</ele>
        <time>2020-05-31T16:38:59+02:00</time>
      </trkpt>
      <trkpt lat="44.61533" lon="5.3627">
        <ele>1098</ele>
        <time>2020-05-31T16:39:17+02:00</time>
      </trkpt>
      <trkpt lat="44.61559" lon="5.36271">
        <ele>1096</ele>
        <time>2020-05-31T16:39:43+02:00</time>
      </trkpt>
      <trkpt lat="44.61583" lon="5.36267">
        <ele>1093</ele>
        <time>2020-05-31T16:39:58+02:00</time>
      </trkpt>
      <trkpt lat="44.61597" lon="5.36265">
        <ele>1090</ele>
        <time>2020-05-31T16:40:13+02:00</time>
      </trkpt>
      <trkpt lat="44.61611" lon="5.36257">
        <ele>1087</ele>
        <time>2020-05-31T16:40:28+02:00</time>
      </trkpt>
      <trkpt lat="44.61626" lon="5.36248">
        <ele>1083</ele>
        <time>2020-05-31T16:40:44+02:00</time>
      </trkpt>
      <trkpt lat="44.6164" lon="5.36228">
        <ele>1082</ele>
        <time>2020-05-31T16:41:10+02:00</time>
      </trkpt>
      <trkpt lat="44.6166" lon="5.36195">
        <ele>1079</ele>
        <time>2020-05-31T16:42:12+02:00</time>
      </trkpt>
      <trkpt lat="44.61675" lon="5.3618">
        <ele>1075</ele>
        <time>2020-05-31T16:42:33+02:00</time>
      </trkpt>
      <trkpt lat="44.61696" lon="5.36156">
        <ele>1067</ele>
        <time>2020-05-31T16:42:58+02:00</time>
      </trkpt>
      <trkpt lat="44.61711" lon="5.36141">
        <ele>1062</ele>
        <time>2020-05-31T16:43:18+02:00</time>
      </trkpt>
      <trkpt lat="44.61718" lon="5.36125">
        <ele>1061</ele>
        <time>2020-05-31T16:43:33+02:00</time>
      </trkpt>
      <trkpt lat="44.61728" lon="5.36109">
        <ele>1059</ele>
        <time>2020-05-31T16:43:49+02:00</time>
      </trkpt>
      <trkpt lat="44.61733" lon="5.36097">
        <ele>1057</ele>
        <time>2020-05-31T16:44:04+02:00</time>
      </trkpt>
      <trkpt lat="44.61746" lon="5.36071">
        <ele>1054</ele>
        <time>2020-05-31T16:44:29+02:00</time>
      </trkpt>
      <trkpt lat="44.61754" lon="5.36055">
        <ele>1052</ele>
        <time>2020-05-31T16:44:47+02:00</time>
      </trkpt>
      <trkpt lat="44.61766" lon="5.36046">
        <ele>1047</ele>
        <time>2020-05-31T16:45:01+02:00</time>
      </trkpt>
      <trkpt lat="44.6178" lon="5.36043">
        <ele>1043</ele>
        <time>2020-05-31T16:45:17+02:00</time>
      </trkpt>
      <trkpt lat="44.61796" lon="5.36036">
        <ele>1038</ele>
        <time>2020-05-31T16:45:50+02:00</time>
      </trkpt>
      <trkpt lat="44.61801" lon="5.36013">
        <ele>1033</ele>
        <time>2020-05-31T16:46:16+02:00</time>
      </trkpt>
      <trkpt lat="44.61802" lon="5.35985">
        <ele>1027</ele>
        <time>2020-05-31T16:46:37+02:00</time>
      </trkpt>
      <trkpt lat="44.61787" lon="5.35971">
        <ele>1027</ele>
        <time>2020-05-31T16:46:50+02:00</time>
      </trkpt>
      <trkpt lat="44.61771" lon="5.35961">
        <ele>1028</ele>
        <time>2020-05-31T16:47:10+02:00</time>
      </trkpt>
      <trkpt lat="44.61757" lon="5.35947">
        <ele>1026</ele>
        <time>2020-05-31T16:47:28+02:00</time>
      </trkpt>
      <trkpt lat="44.61748" lon="5.3592">
        <ele>1016</ele>
        <time>2020-05-31T16:48:00+02:00</time>
      </trkpt>
      <trkpt lat="44.61761" lon="5.35915">
        <ele>1013</ele>
        <time>2020-05-31T16:48:16+02:00</time>
      </trkpt>
      <trkpt lat="44.61777" lon="5.35898">
        <ele>1004</ele>
        <time>2020-05-31T16:48:28+02:00</time>
      </trkpt>
      <trkpt lat="44.61794" lon="5.35893">
        <ele>1000</ele>
        <time>2020-05-31T16:48:45+02:00</time>
      </trkpt>
      <trkpt lat="44.61816" lon="5.35886">
        <ele>996</ele>
        <time>2020-05-31T16:49:05+02:00</time>
      </trkpt>
      <trkpt lat="44.61835" lon="5.35883">
        <ele>994</ele>
        <time>2020-05-31T16:49:24+02:00</time>
      </trkpt>
      <trkpt lat="44.61849" lon="5.35876">
        <ele>991</ele>
        <time>2020-05-31T16:49:42+02:00</time>
      </trkpt>
      <trkpt lat="44.61867" lon="5.35871">
        <ele>988</ele>
        <time>2020-05-31T16:49:58+02:00</time>
      </trkpt>
      <trkpt lat="44.61881" lon="5.35874">
        <ele>987</ele>
        <time>2020-05-31T16:50:19+02:00</time>
      </trkpt>
      <trkpt lat="44.61899" lon="5.35871">
        <ele>983</ele>
        <time>2020-05-31T16:50:35+02:00</time>
      </trkpt>
      <trkpt lat="44.61919" lon="5.35873">
        <ele>980</ele>
        <time>2020-05-31T16:50:52+02:00</time>
      </trkpt>
      <trkpt lat="44.61933" lon="5.3587">
        <ele>974</ele>
        <time>2020-05-31T16:51:09+02:00</time>
      </trkpt>
      <trkpt lat="44.61943" lon="5.35859">
        <ele>970</ele>
        <time>2020-05-31T16:51:22+02:00</time>
      </trkpt>
      <trkpt lat="44.61953" lon="5.35853">
        <ele>966</ele>
        <time>2020-05-31T16:51:34+02:00</time>
      </trkpt>
      <trkpt lat="44.61967" lon="5.35835">
        <ele>961</ele>
        <time>2020-05-31T16:51:53+02:00</time>
      </trkpt>
      <trkpt lat="44.61982" lon="5.35814">
        <ele>957</ele>
        <time>2020-05-31T16:52:14+02:00</time>
      </trkpt>
      <trkpt lat="44.61998" lon="5.35804">
        <ele>953</ele>
        <time>2020-05-31T16:54:41+02:00</time>
      </trkpt>
      <trkpt lat="44.62015" lon="5.35783">
        <ele>949</ele>
        <time>2020-05-31T16:55:20+02:00</time>
      </trkpt>
      <trkpt lat="44.62029" lon="5.35766">
        <ele>948</ele>
        <time>2020-05-31T16:55:41+02:00</time>
      </trkpt>
      <trkpt lat="44.62045" lon="5.35749">
        <ele>944</ele>
        <time>2020-05-31T16:56:01+02:00</time>
      </trkpt>
      <trkpt lat="44.62061" lon="5.35742">
        <ele>941</ele>
        <time>2020-05-31T16:56:19+02:00</time>
      </trkpt>
      <trkpt lat="44.62084" lon="5.35733">
        <ele>938</ele>
        <time>2020-05-31T16:56:41+02:00</time>
      </trkpt>
      <trkpt lat="44.62097" lon="5.35725">
        <ele>936</ele>
        <time>2020-05-31T16:56:55+02:00</time>
      </trkpt>
      <trkpt lat="44.62109" lon="5.35716">
        <ele>934</ele>
      </trkpt>
      <trkpt lat="44.62119" lon="5.35729">
        <ele>931</ele>
        <time>2020-05-31T16:57:24+02:00</time>
      </trkpt>
      <trkpt lat="44.62123" lon="5.35754">
        <ele>925</ele>
        <time>2020-05-31T16:57:44+02:00</time>
      </trkpt>
      <trkpt lat="44.62139" lon="5.35754">
        <ele>922</ele>
        <time>2020-05-31T16:58:04+02:00</time>
      </trkpt>
      <trkpt lat="44.62154" lon="5.35745">
        <ele>920</ele>
        <time>2020-05-31T16:58:21+02:00</time>
      </trkpt>
      <trkpt lat="44.62163" lon="5.35739">
        <ele>919</ele>
        <time>2020-05-31T16:58:38+02:00</time>
      </trkpt>
      <trkpt lat="44.62184" lon="5.35726">
        <ele>916</ele>
        <time>2020-05-31T16:59:01+02:00</time>
      </trkpt>
      <trkpt lat="44.62205" lon="5.35714">
        <ele>913</ele>
        <time>2020-05-31T16:59:21+02:00</time>
      </trkpt>
      <trkpt lat="44.62217" lon="5.35701">
        <ele>912</ele>
        <time>2020-05-31T17:00:15+02:00</time>
      </trkpt>
      <trkpt lat="44.62227" lon="5.35721">
        <ele>908</ele>
        <time>2020-05-31T17:01:13+02:00</time>
      </trkpt>
      <trkpt lat="44.62244" lon="5.35695">
        <ele>906</ele>
        <time>2020-05-31T17:01:35+02:00</time>
      </trkpt>
      <trkpt lat="44.62251" lon="5.35669">
        <ele>907</ele>
        <time>2020-05-31T17:01:55+02:00</time>
      </trkpt>
      <trkpt lat="44.62257" lon="5.3565">
        <ele>906</ele>
        <time>2020-05-31T17:02:11+02:00</time>
      </trkpt>
      <trkpt lat="44.62261" lon="5.35624">
        <ele>905</ele>
        <time>2020-05-31T17:02:30+02:00</time>
      </trkpt>
      <trkpt lat="44.62259" lon="5.35597">
        <ele>904</ele>
        <time>2020-05-31T17:02:49+02:00</time>
      </trkpt>
      <trkpt lat="44.62253" lon="5.35571">
        <ele>903</ele>
        <time>2020-05-31T17:03:12+02:00</time>
      </trkpt>
      <trkpt lat="44.62257" lon="5.3555">
        <ele>901</ele>
        <time>2020-05-31T17:03:50+02:00</time>
      </trkpt>
      <trkpt lat="44.62256" lon="5.35529">
        <ele>899</ele>
        <time>2020-05-31T17:19:54+02:00</time>
      </trkpt>
      <trkpt lat="44.62261" lon="5.35507">
        <ele>898</ele>
        <time>2020-05-31T17:20:14+02:00</time>
      </trkpt>
      <trkpt lat="44.62265" lon="5.35492">
        <ele>898</ele>
        <time>2020-05-31T17:20:29+02:00</time>
      </trkpt>
      <trkpt lat="44.62268" lon="5.35461">
        <ele>896</ele>
        <time>2020-05-31T17:20:52+02:00</time>
      </trkpt>
      <trkpt lat="44.62269" lon="5.35444">
        <ele>895</ele>
        <time>2020-05-31T17:21:04+02:00</time>
      </trkpt>
      <trkpt lat="44.62276" lon="5.35415">
        <ele>892</ele>
        <time>2020-05-31T17:21:27+02:00</time>
      </trkpt>
      <trkpt lat="44.62281" lon="5.354">
        <ele>889</ele>
        <time>2020-05-31T17:21:42+02:00</time>
      </trkpt>
      <trkpt lat="44.62286" lon="5.35384">
        <ele>887</ele>
        <time>2020-05-31T17:21:56+02:00</time>
      </trkpt>
      <trkpt lat="44.62293" lon="5.35367">
        <ele>883</ele>
        <time>2020-05-31T17:22:13+02:00</time>
      </trkpt>
      <trkpt lat="44.62301" lon="5.35351">
        <ele>880</ele>
        <time>2020-05-31T17:22:28+02:00</time>
      </trkpt>
      <trkpt lat="44.6231" lon="5.35333">
        <ele>877</ele>
      </trkpt>
      <trkpt lat="44.62303" lon="5.35324">
        <ele>873</ele>
      </trkpt>
      <trkpt lat="44.62288" lon="5.35327">
        <ele>871</ele>
        <time>2020-05-31T17:23:07+02:00</time>
      </trkpt>
      <trkpt lat="44.62271" lon="5.3534">
        <ele>871</ele>
        <time>2020-05-31T17:23:21+02:00</time>
      </trkpt>
      <trkpt lat="44.62258" lon="5.35345">
        <ele>870</ele>
        <time>2020-05-31T17:23:44+02:00</time>
      </trkpt>
      <trkpt lat="44.62249" lon="5.35348">
        <ele>869</ele>
        <time>2020-05-31T17:23:54+02:00</time>
      </trkpt>
      <trkpt lat="44.6223" lon="5.3536">
        <ele>864</ele>
        <time>2020-05-31T17:24:14+02:00</time>
      </trkpt>
      <trkpt lat="44.6222" lon="5.35378">
        <ele>863</ele>
        <time>2020-05-31T17:24:31+02:00</time>
      </trkpt>
      <trkpt lat="44.6221" lon="5.35393">
        <ele>860</ele>
        <time>2020-05-31T17:24:46+02:00</time>
      </trkpt>
      <trkpt lat="44.62204" lon="5.35406">
        <ele>859</ele>
        <time>2020-05-31T17:24:58+02:00</time>
      </trkpt>
      <trkpt lat="44.62194" lon="5.3542">
        <ele>856</ele>
      </trkpt>
      <trkpt lat="44.62189" lon="5.35384">
        <ele>847</ele>
        <time>2020-05-31T17:25:58+02:00</time>
      </trkpt>
      <trkpt lat="44.62192" lon="5.35364">
        <ele>846</ele>
        <time>2020-05-31T17:26:12+02:00</time>
      </trkpt>
      <trkpt lat="44.62195" lon="5.3534">
        <ele>844</ele>
        <time>2020-05-31T17:26:29+02:00</time>
      </trkpt>
      <trkpt lat="44.62199" lon="5.35321">
        <ele>843</ele>
        <time>2020-05-31T17:26:44+02:00</time>
      </trkpt>
      <trkpt lat="44.62205" lon="5.353">
        <ele>840</ele>
        <time>2020-05-31T17:27:01+02:00</time>
      </trkpt>
      <trkpt lat="44.62213" lon="5.35281">
        <ele>837</ele>
        <time>2020-05-31T17:27:21+02:00</time>
      </trkpt>
      <trkpt lat="44.62219" lon="5.35271">
        <ele>836</ele>
        <time>2020-05-31T17:27:32+02:00</time>
      </trkpt>
      <trkpt lat="44.62228" lon="5.35254">
        <ele>830</ele>
        <time>2020-05-31T17:27:50+02:00</time>
      </trkpt>
      <trkpt lat="44.62242" lon="5.35233">
        <ele>824</ele>
        <time>2020-05-31T17:28:13+02:00</time>
      </trkpt>
      <trkpt lat="44.62257" lon="5.35222">
        <ele>822</ele>
        <time>2020-05-31T17:28:31+02:00</time>
      </trkpt>
      <trkpt lat="44.62265" lon="5.35205">
        <ele>814</ele>
        <time>2020-05-31T17:28:53+02:00</time>
      </trkpt>
      <trkpt lat="44.6228" lon="5.35187">
        <ele>808</ele>
        <time>2020-05-31T17:29:09+02:00</time>
      </trkpt>
      <trkpt lat="44.62294" lon="5.35175">
        <ele>806</ele>
        <time>2020-05-31T17:29:25+02:00</time>
      </trkpt>
      <trkpt lat="44.62308" lon="5.35156">
        <ele>802</ele>
        <time>2020-05-31T17:29:43+02:00</time>
      </trkpt>
      <trkpt lat="44.62323" lon="5.35136">
        <ele>802</ele>
        <time>2020-05-31T17:30:03+02:00</time>
      </trkpt>
      <trkpt lat="44.62337" lon="5.35115">
        <ele>802</ele>
        <time>2020-05-31T17:30:23+02:00</time>
      </trkpt>
      <trkpt lat="44.62346" lon="5.35089">
        <ele>800</ele>
        <time>2020-05-31T17:30:44+02:00</time>
      </trkpt>
      <trkpt lat="44.62354" lon="5.35064">
        <ele>798</ele>
        <time>2020-05-31T17:31:03+02:00</time>
      </trkpt>
      <trkpt lat="44.62357" lon="5.35042">
        <ele>794</ele>
        <time>2020-05-31T17:31:21+02:00</time>
      </trkpt>
      <trkpt lat="44.6236" lon="5.35021">
        <ele>789</ele>
        <time>2020-05-31T17:31:39+02:00</time>
      </trkpt>
      <trkpt lat="44.62362" lon="5.35005">
        <ele>784</ele>
        <time>2020-05-31T17:31:53+02:00</time>
      </trkpt>
      <trkpt lat="44.62368" lon="5.34981">
        <ele>780</ele>
        <time>2020-05-31T17:32:10+02:00</time>
      </trkpt>
      <trkpt lat="44.62381" lon="5.34964">
        <ele>780</ele>
        <time>2020-05-31T17:32:27+02:00</time>
      </trkpt>
      <trkpt lat="44.62401" lon="5.34947">
        <ele>780</ele>
        <time>2020-05-31T17:32:49+02:00</time>
      </trkpt>
      <trkpt lat="44.62413" lon="5.34933">
        <ele>777</ele>
        <time>2020-05-31T17:33:04+02:00</time>
      </trkpt>
      <trkpt lat="44.62423" lon="5.34924">
        <ele>774</ele>
        <time>2020-05-31T17:33:20+02:00</time>
      </trkpt>
      <trkpt lat="44.62435" lon="5.34919">
        <ele>772</ele>
        <time>2020-05-31T17:33:36+02:00</time>
      </trkpt>
      <trkpt lat="44.62451" lon="5.34909">
        <ele>767</ele>
        <time>2020-05-31T17:33:53+02:00</time>
      </trkpt>
      <trkpt lat="44.62459" lon="5.34883">
        <ele>759</ele>
        <time>2020-05-31T17:34:21+02:00</time>
      </trkpt>
      <trkpt lat="44.62462" lon="5.34853">
        <ele>752</ele>
        <time>2020-05-31T17:34:46+02:00</time>
      </trkpt>
      <trkpt lat="44.62466" lon="5.34826">
        <ele>749</ele>
        <time>2020-05-31T17:35:16+02:00</time>
      </trkpt>
      <trkpt lat="44.62472" lon="5.34799">
        <ele>747</ele>
        <time>2020-05-31T17:35:57+02:00</time>
      </trkpt>
      <trkpt lat="44.6248" lon="5.34774">
        <ele>743</ele>
        <time>2020-05-31T17:36:34+02:00</time>
      </trkpt>
      <trkpt lat="44.62483" lon="5.34757">
        <ele>742</ele>
        <time>2020-05-31T17:36:52+02:00</time>
      </trkpt>
      <trkpt lat="44.62488" lon="5.34731">
        <ele>741</ele>
        <time>2020-05-31T17:37:16+02:00</time>
      </trkpt>
      <trkpt lat="44.62494" lon="5.34706">
        <ele>741</ele>
        <time>2020-05-31T17:37:35+02:00</time>
      </trkpt>
      <trkpt lat="44.62502" lon="5.34684">
        <ele>740</ele>
        <time>2020-05-31T17:38:13+02:00</time>
      </trkpt>
      <trkpt lat="44.62504" lon="5.34664">
        <ele>739</ele>
        <time>2020-05-31T17:38:29+02:00</time>
      </trkpt>
      <trkpt lat="44.62508" lon="5.34631">
        <ele>737</ele>
        <time>2020-05-31T17:38:52+02:00</time>
      </trkpt>
      <trkpt lat="44.62508" lon="5.34615">
        <ele>737</ele>
        <time>2020-05-31T17:39:05+02:00</time>
      </trkpt>
      <trkpt lat="44.62499" lon="5.34586">
        <ele>736</ele>
        <time>2020-05-31T17:39:31+02:00</time>
      </trkpt>
      <trkpt lat="44.62489" lon="5.34569">
        <ele>734</ele>
        <time>2020-05-31T17:39:49+02:00</time>
      </trkpt>
      <trkpt lat="44.62478" lon="5.34548">
        <ele>731</ele>
        <time>2020-05-31T17:40:08+02:00</time>
      </trkpt>
      <trkpt lat="44.62474" lon="5.34538">
        <ele>730</ele>
        <time>2020-05-31T17:40:17+02:00</time>
      </trkpt>
      <trkpt lat="44.62484" lon="5.34542">
        <ele>729</ele>
        <time>2020-05-31T17:40:30+02:00</time>
      </trkpt>
      <trkpt lat="44.62494" lon="5.34555">
        <ele>730</ele>
        <time>2020-05-31T17:40:43+02:00</time>
      </trkpt>
      <trkpt lat="44.62507" lon="5.34571">
        <ele>731</ele>
        <time>2020-05-31T17:41:00+02:00</time>
      </trkpt>
      <trkpt lat="44.62525" lon="5.34591">
        <ele>728</ele>
        <time>2020-05-31T17:41:21+02:00</time>
      </trkpt>
      <trkpt lat="44.62539" lon="5.34598">
        <ele>724</ele>
        <time>2020-05-31T17:41:40+02:00</time>
      </trkpt>
      <trkpt lat="44.62535" lon="5.34623">
        <ele>727</ele>
        <time>2020-05-31T17:41:53+02:00</time>
      </trkpt>
      <trkpt lat="44.6254" lon="5.3466">
        <ele>723</ele>
        <time>2020-05-31T17:42:18+02:00</time>
      </trkpt>
      <trkpt lat="44.6254" lon="5.34691">
        <ele>722</ele>
        <time>2020-05-31T17:42:41+02:00</time>
      </trkpt>
      <trkpt lat="44.62532" lon="5.3473">
        <ele>723</ele>
        <time>2020-05-31T17:43:02+02:00</time>
      </trkpt>
      <trkpt lat="44.62527" lon="5.34756">
        <ele>724</ele>
        <time>2020-05-31T17:43:25+02:00</time>
      </trkpt>
      <trkpt lat="44.62525" lon="5.34779">
        <ele>724</ele>
        <time>2020-05-31T17:43:34+02:00</time>
      </trkpt>
      <trkpt lat="44.62532" lon="5.34797">
        <ele>721</ele>
        <time>2020-05-31T17:43:53+02:00</time>
      </trkpt>
      <trkpt lat="44.62546" lon="5.34819">
        <ele>718</ele>
        <time>2020-05-31T17:44:11+02:00</time>
      </trkpt>
      <trkpt lat="44.62562" lon="5.34838">
        <ele>717</ele>
        <time>2020-05-31T17:44:29+02:00</time>
      </trkpt>
      <trkpt lat="44.62578" lon="5.34857">
        <ele>717</ele>
        <time>2020-05-31T17:44:49+02:00</time>
      </trkpt>
      <trkpt lat="44.62593" lon="5.34874">
        <ele>716</ele>
        <time>2020-05-31T17:45:15+02:00</time>
      </trkpt>
      <trkpt lat="44.62609" lon="5.3489">
        <ele>716</ele>
        <time>2020-05-31T17:45:39+02:00</time>
      </trkpt>
      <trkpt lat="44.62625" lon="5.34913">
        <ele>717</ele>
        <time>2020-05-31T17:45:54+02:00</time>
        <extensions>
          <visugpx:TrkExtension xmlns:visugpx="https://www.visugpx.com/editgpx/">
            <visugpx:node>6</visugpx:node>
            </visugpx:TrkExtension>
        </extensions>
      </trkpt>
    </trkseg>
  </trk>
</gpx>